<?xml version="1.0" encoding="UTF-8" standalone="no" ?>
<gpx xmlns="http://www.topografix.com/GPX/1/1" xmlns:xsi="http://www.w3.org/2001/XMLSchema-instance" xsi:schemaLocation="http://www.topografix.com/GPX/1/1 http://www.topografix.com/GPX/1/1/gpx.xsd" version="1.1" creator="VisuGPX - https://www.visugpx.com">
  <metadata>
    <name>Casse-Froide - Ardillats - Ajoux</name>
  </metadata>
  <trk>
    <name><![CDATA[15466982-Casse-Froide - Ardillats - Ajoux]]></name>
    <trkseg>
      <trkpt lat="46.07455" lon="4.49043">
        <ele>397</ele>
        <time>2022-08-31T22:42:13Z</time>
      </trkpt>
      <trkpt lat="46.07462" lon="4.49093">
        <ele>395</ele>
        <time>2022-08-31T22:42:19Z</time>
      </trkpt>
      <trkpt lat="46.07463" lon="4.49104">
        <ele>396</ele>
        <time>2022-08-31T22:42:21Z</time>
      </trkpt>
      <trkpt lat="46.07461" lon="4.49117">
        <ele>396</ele>
        <time>2022-08-31T22:42:22Z</time>
      </trkpt>
      <trkpt lat="46.07456" lon="4.49129">
        <ele>397</ele>
        <time>2022-08-31T22:42:24Z</time>
      </trkpt>
      <trkpt lat="46.07447" lon="4.49139">
        <ele>396</ele>
        <time>2022-08-31T22:42:26Z</time>
      </trkpt>
      <trkpt lat="46.07376" lon="4.49181">
        <ele>395</ele>
        <time>2022-08-31T22:42:40Z</time>
      </trkpt>
      <trkpt lat="46.07352" lon="4.49202">
        <ele>396</ele>
        <time>2022-08-31T22:42:45Z</time>
      </trkpt>
      <trkpt lat="46.07333" lon="4.49227">
        <ele>396</ele>
        <time>2022-08-31T22:42:49Z</time>
      </trkpt>
      <trkpt lat="46.07328" lon="4.49238">
        <ele>396</ele>
        <time>2022-08-31T22:42:51Z</time>
      </trkpt>
      <trkpt lat="46.07324" lon="4.49251">
        <ele>396</ele>
        <time>2022-08-31T22:42:53Z</time>
      </trkpt>
      <trkpt lat="46.07323" lon="4.4927">
        <ele>396</ele>
        <time>2022-08-31T22:42:55Z</time>
      </trkpt>
      <trkpt lat="46.07328" lon="4.49286">
        <ele>396</ele>
        <time>2022-08-31T22:42:57Z</time>
      </trkpt>
      <trkpt lat="46.07345" lon="4.4932">
        <ele>397</ele>
        <time>2022-08-31T22:43:02Z</time>
      </trkpt>
      <trkpt lat="46.07416" lon="4.49431">
        <ele>401</ele>
        <time>2022-08-31T22:43:21Z</time>
      </trkpt>
      <trkpt lat="46.07445" lon="4.49474">
        <ele>401</ele>
        <time>2022-08-31T22:43:28Z</time>
      </trkpt>
      <trkpt lat="46.07459" lon="4.49491">
        <ele>401</ele>
        <time>2022-08-31T22:43:32Z</time>
      </trkpt>
      <trkpt lat="46.07615" lon="4.4962">
        <ele>401</ele>
        <time>2022-08-31T22:44:04Z</time>
      </trkpt>
      <trkpt lat="46.0764" lon="4.49634">
        <ele>402</ele>
        <time>2022-08-31T22:44:08Z</time>
      </trkpt>
      <trkpt lat="46.07667" lon="4.49647">
        <ele>403</ele>
        <time>2022-08-31T22:44:13Z</time>
      </trkpt>
      <trkpt lat="46.07745" lon="4.49677">
        <ele>406</ele>
        <time>2022-08-31T22:44:28Z</time>
      </trkpt>
      <trkpt lat="46.07852" lon="4.49727">
        <ele>411</ele>
        <time>2022-08-31T22:44:48Z</time>
      </trkpt>
      <trkpt lat="46.07887" lon="4.49744">
        <ele>414</ele>
        <time>2022-08-31T22:44:54Z</time>
      </trkpt>
      <trkpt lat="46.07947" lon="4.4978">
        <ele>417</ele>
        <time>2022-08-31T22:45:06Z</time>
      </trkpt>
      <trkpt lat="46.0796" lon="4.49786">
        <ele>418</ele>
        <time>2022-08-31T22:45:08Z</time>
      </trkpt>
      <trkpt lat="46.0809" lon="4.49805">
        <ele>422</ele>
        <time>2022-08-31T22:45:32Z</time>
      </trkpt>
      <trkpt lat="46.08108" lon="4.49805">
        <ele>422</ele>
        <time>2022-08-31T22:45:35Z</time>
      </trkpt>
      <trkpt lat="46.08123" lon="4.49799">
        <ele>422</ele>
        <time>2022-08-31T22:45:38Z</time>
      </trkpt>
      <trkpt lat="46.08135" lon="4.49792">
        <ele>423</ele>
        <time>2022-08-31T22:45:40Z</time>
      </trkpt>
      <trkpt lat="46.08157" lon="4.4977">
        <ele>425</ele>
        <time>2022-08-31T22:45:45Z</time>
      </trkpt>
      <trkpt lat="46.08176" lon="4.49758">
        <ele>427</ele>
        <time>2022-08-31T22:45:48Z</time>
      </trkpt>
      <trkpt lat="46.08194" lon="4.4975">
        <ele>428</ele>
        <time>2022-08-31T22:45:52Z</time>
      </trkpt>
      <trkpt lat="46.08216" lon="4.49746">
        <ele>429</ele>
        <time>2022-08-31T22:45:56Z</time>
      </trkpt>
      <trkpt lat="46.08233" lon="4.49746">
        <ele>429</ele>
        <time>2022-08-31T22:45:59Z</time>
      </trkpt>
      <trkpt lat="46.08246" lon="4.49751">
        <ele>428</ele>
        <time>2022-08-31T22:46:01Z</time>
      </trkpt>
      <trkpt lat="46.08331" lon="4.49805">
        <ele>429</ele>
        <time>2022-08-31T22:46:18Z</time>
      </trkpt>
      <trkpt lat="46.08346" lon="4.49824">
        <ele>429</ele>
        <time>2022-08-31T22:46:21Z</time>
      </trkpt>
      <trkpt lat="46.08367" lon="4.49857">
        <ele>428</ele>
        <time>2022-08-31T22:46:27Z</time>
      </trkpt>
      <trkpt lat="46.0839" lon="4.49883">
        <ele>428</ele>
        <time>2022-08-31T22:46:32Z</time>
      </trkpt>
      <trkpt lat="46.08402" lon="4.49891">
        <ele>428</ele>
        <time>2022-08-31T22:46:34Z</time>
      </trkpt>
      <trkpt lat="46.08421" lon="4.49902">
        <ele>428</ele>
        <time>2022-08-31T22:46:38Z</time>
      </trkpt>
      <trkpt lat="46.08464" lon="4.4992">
        <ele>431</ele>
        <time>2022-08-31T22:46:46Z</time>
      </trkpt>
      <trkpt lat="46.08487" lon="4.49934">
        <ele>431</ele>
        <time>2022-08-31T22:46:50Z</time>
      </trkpt>
      <trkpt lat="46.08538" lon="4.49973">
        <ele>430</ele>
        <time>2022-08-31T22:47:01Z</time>
      </trkpt>
      <trkpt lat="46.0855" lon="4.49986">
        <ele>429</ele>
        <time>2022-08-31T22:47:03Z</time>
      </trkpt>
      <trkpt lat="46.08559" lon="4.5">
        <ele>428</ele>
        <time>2022-08-31T22:47:06Z</time>
      </trkpt>
      <trkpt lat="46.08581" lon="4.50044">
        <ele>427</ele>
        <time>2022-08-31T22:47:12Z</time>
      </trkpt>
      <trkpt lat="46.08596" lon="4.50071">
        <ele>425</ele>
        <time>2022-08-31T22:47:17Z</time>
      </trkpt>
      <trkpt lat="46.08607" lon="4.5008">
        <ele>425</ele>
        <time>2022-08-31T22:47:19Z</time>
      </trkpt>
      <trkpt lat="46.08617" lon="4.50084">
        <ele>426</ele>
        <time>2022-08-31T22:47:21Z</time>
      </trkpt>
      <trkpt lat="46.08637" lon="4.50082">
        <ele>427</ele>
        <time>2022-08-31T22:47:24Z</time>
      </trkpt>
      <trkpt lat="46.08691" lon="4.50052">
        <ele>429</ele>
        <time>2022-08-31T22:47:35Z</time>
      </trkpt>
      <trkpt lat="46.08699" lon="4.50051">
        <ele>429</ele>
        <time>2022-08-31T22:47:36Z</time>
      </trkpt>
      <trkpt lat="46.08709" lon="4.50054">
        <ele>429</ele>
        <time>2022-08-31T22:47:38Z</time>
      </trkpt>
      <trkpt lat="46.08719" lon="4.50062">
        <ele>428</ele>
        <time>2022-08-31T22:47:40Z</time>
      </trkpt>
      <trkpt lat="46.08733" lon="4.50087">
        <ele>428</ele>
        <time>2022-08-31T22:47:44Z</time>
      </trkpt>
      <trkpt lat="46.08734" lon="4.5009">
        <ele>428</ele>
        <time>2022-08-31T22:47:44Z</time>
      </trkpt>
      <trkpt lat="46.08812" lon="4.50087">
        <ele>432</ele>
        <time>2022-08-31T22:47:58Z</time>
      </trkpt>
      <trkpt lat="46.08858" lon="4.5009">
        <ele>435</ele>
        <time>2022-08-31T22:48:06Z</time>
      </trkpt>
      <trkpt lat="46.0889" lon="4.50089">
        <ele>438</ele>
        <time>2022-08-31T22:48:12Z</time>
      </trkpt>
      <trkpt lat="46.08924" lon="4.50083">
        <ele>439</ele>
        <time>2022-08-31T22:48:18Z</time>
      </trkpt>
      <trkpt lat="46.08948" lon="4.50073">
        <ele>439</ele>
        <time>2022-08-31T22:48:23Z</time>
      </trkpt>
      <trkpt lat="46.08976" lon="4.50055">
        <ele>438</ele>
        <time>2022-08-31T22:48:28Z</time>
      </trkpt>
      <trkpt lat="46.09062" lon="4.49981">
        <ele>438</ele>
        <time>2022-08-31T22:48:46Z</time>
      </trkpt>
      <trkpt lat="46.09236" lon="4.4979">
        <ele>443</ele>
        <time>2022-08-31T22:49:25Z</time>
      </trkpt>
      <trkpt lat="46.09253" lon="4.49778">
        <ele>443</ele>
        <time>2022-08-31T22:49:28Z</time>
      </trkpt>
      <trkpt lat="46.0927" lon="4.49771">
        <ele>442</ele>
        <time>2022-08-31T22:49:31Z</time>
      </trkpt>
      <trkpt lat="46.09285" lon="4.49772">
        <ele>443</ele>
        <time>2022-08-31T22:49:34Z</time>
      </trkpt>
      <trkpt lat="46.09308" lon="4.49779">
        <ele>444</ele>
        <time>2022-08-31T22:49:38Z</time>
      </trkpt>
      <trkpt lat="46.09327" lon="4.49792">
        <ele>447</ele>
        <time>2022-08-31T22:49:42Z</time>
      </trkpt>
      <trkpt lat="46.09389" lon="4.49858">
        <ele>449</ele>
        <time>2022-08-31T22:49:56Z</time>
      </trkpt>
      <trkpt lat="46.09403" lon="4.49867">
        <ele>448</ele>
        <time>2022-08-31T22:49:58Z</time>
      </trkpt>
      <trkpt lat="46.09423" lon="4.49872">
        <ele>447</ele>
        <time>2022-08-31T22:50:02Z</time>
      </trkpt>
      <trkpt lat="46.09487" lon="4.49876">
        <ele>446</ele>
        <time>2022-08-31T22:50:13Z</time>
      </trkpt>
      <trkpt lat="46.095" lon="4.49874">
        <ele>446</ele>
        <time>2022-08-31T22:50:16Z</time>
      </trkpt>
      <trkpt lat="46.09512" lon="4.49869">
        <ele>447</ele>
        <time>2022-08-31T22:50:18Z</time>
      </trkpt>
      <trkpt lat="46.09526" lon="4.49859">
        <ele>448</ele>
        <time>2022-08-31T22:50:21Z</time>
      </trkpt>
      <trkpt lat="46.09559" lon="4.49827">
        <ele>449</ele>
        <time>2022-08-31T22:50:28Z</time>
      </trkpt>
      <trkpt lat="46.09581" lon="4.49809">
        <ele>449</ele>
        <time>2022-08-31T22:50:32Z</time>
      </trkpt>
      <trkpt lat="46.09608" lon="4.49792">
        <ele>449</ele>
        <time>2022-08-31T22:50:37Z</time>
      </trkpt>
      <trkpt lat="46.09638" lon="4.49779">
        <ele>449</ele>
        <time>2022-08-31T22:50:43Z</time>
      </trkpt>
      <trkpt lat="46.09792" lon="4.49734">
        <ele>454</ele>
        <time>2022-08-31T22:51:11Z</time>
      </trkpt>
      <trkpt lat="46.09925" lon="4.49659">
        <ele>448</ele>
        <time>2022-08-31T22:51:36Z</time>
      </trkpt>
      <trkpt lat="46.09947" lon="4.49649">
        <ele>449</ele>
        <time>2022-08-31T22:51:40Z</time>
      </trkpt>
      <trkpt lat="46.09966" lon="4.49643">
        <ele>449</ele>
        <time>2022-08-31T22:51:44Z</time>
      </trkpt>
      <trkpt lat="46.09999" lon="4.49639">
        <ele>450</ele>
        <time>2022-08-31T22:51:50Z</time>
      </trkpt>
      <trkpt lat="46.10049" lon="4.49634">
        <ele>452</ele>
        <time>2022-08-31T22:51:59Z</time>
      </trkpt>
      <trkpt lat="46.10055" lon="4.49649">
        <ele>453</ele>
        <time>2022-08-31T22:52:01Z</time>
      </trkpt>
      <trkpt lat="46.1006" lon="4.49658">
        <ele>454</ele>
        <time>2022-08-31T22:52:02Z</time>
      </trkpt>
      <trkpt lat="46.10267" lon="4.49918">
        <ele>473</ele>
        <time>2022-08-31T22:52:51Z</time>
      </trkpt>
      <trkpt lat="46.10272" lon="4.49922">
        <ele>473</ele>
        <time>2022-08-31T22:52:52Z</time>
      </trkpt>
      <trkpt lat="46.10286" lon="4.49924">
        <ele>474</ele>
        <time>2022-08-31T22:52:55Z</time>
      </trkpt>
      <trkpt lat="46.10308" lon="4.49919">
        <ele>477</ele>
        <time>2022-08-31T22:52:59Z</time>
      </trkpt>
      <trkpt lat="46.10323" lon="4.4992">
        <ele>478</ele>
        <time>2022-08-31T22:53:01Z</time>
      </trkpt>
      <trkpt lat="46.1033" lon="4.49924">
        <ele>479</ele>
        <time>2022-08-31T22:53:03Z</time>
      </trkpt>
      <trkpt lat="46.10342" lon="4.49934">
        <ele>480</ele>
        <time>2022-08-31T22:53:05Z</time>
      </trkpt>
      <trkpt lat="46.10418" lon="4.50018">
        <ele>491</ele>
        <time>2022-08-31T22:53:22Z</time>
      </trkpt>
      <trkpt lat="46.10426" lon="4.50031">
        <ele>492</ele>
        <time>2022-08-31T22:53:24Z</time>
      </trkpt>
      <trkpt lat="46.1043" lon="4.50041">
        <ele>493</ele>
        <time>2022-08-31T22:53:26Z</time>
      </trkpt>
      <trkpt lat="46.10432" lon="4.50054">
        <ele>493</ele>
        <time>2022-08-31T22:53:27Z</time>
      </trkpt>
      <trkpt lat="46.1043" lon="4.50075">
        <ele>493</ele>
        <time>2022-08-31T22:53:30Z</time>
      </trkpt>
      <trkpt lat="46.10426" lon="4.50085">
        <ele>492</ele>
        <time>2022-08-31T22:53:31Z</time>
      </trkpt>
      <trkpt lat="46.10406" lon="4.50119">
        <ele>491</ele>
        <time>2022-08-31T22:53:37Z</time>
      </trkpt>
      <trkpt lat="46.10403" lon="4.50129">
        <ele>491</ele>
        <time>2022-08-31T22:53:38Z</time>
      </trkpt>
      <trkpt lat="46.10402" lon="4.50154">
        <ele>492</ele>
        <time>2022-08-31T22:53:41Z</time>
      </trkpt>
      <trkpt lat="46.10408" lon="4.50202">
        <ele>494</ele>
        <time>2022-08-31T22:53:47Z</time>
      </trkpt>
      <trkpt lat="46.1041" lon="4.50215">
        <ele>494</ele>
        <time>2022-08-31T22:53:49Z</time>
      </trkpt>
      <trkpt lat="46.10414" lon="4.50226">
        <ele>495</ele>
        <time>2022-08-31T22:53:51Z</time>
      </trkpt>
      <trkpt lat="46.10426" lon="4.50244">
        <ele>497</ele>
        <time>2022-08-31T22:53:54Z</time>
      </trkpt>
      <trkpt lat="46.10441" lon="4.50254">
        <ele>499</ele>
        <time>2022-08-31T22:53:57Z</time>
      </trkpt>
      <trkpt lat="46.10449" lon="4.50257">
        <ele>499</ele>
        <time>2022-08-31T22:53:58Z</time>
      </trkpt>
      <trkpt lat="46.10458" lon="4.50256">
        <ele>501</ele>
        <time>2022-08-31T22:54:00Z</time>
      </trkpt>
      <trkpt lat="46.10559" lon="4.50221">
        <ele>514</ele>
        <time>2022-08-31T22:54:18Z</time>
      </trkpt>
      <trkpt lat="46.10572" lon="4.50219">
        <ele>515</ele>
        <time>2022-08-31T22:54:20Z</time>
      </trkpt>
      <trkpt lat="46.10581" lon="4.5022">
        <ele>516</ele>
        <time>2022-08-31T22:54:22Z</time>
      </trkpt>
      <trkpt lat="46.10593" lon="4.50229">
        <ele>517</ele>
        <time>2022-08-31T22:54:24Z</time>
      </trkpt>
      <trkpt lat="46.10599" lon="4.50237">
        <ele>518</ele>
        <time>2022-08-31T22:54:26Z</time>
      </trkpt>
      <trkpt lat="46.10604" lon="4.50261">
        <ele>518</ele>
        <time>2022-08-31T22:54:29Z</time>
      </trkpt>
      <trkpt lat="46.10603" lon="4.50267">
        <ele>518</ele>
        <time>2022-08-31T22:54:30Z</time>
      </trkpt>
      <trkpt lat="46.106" lon="4.50281">
        <ele>518</ele>
        <time>2022-08-31T22:54:32Z</time>
      </trkpt>
      <trkpt lat="46.10582" lon="4.50326">
        <ele>517</ele>
        <time>2022-08-31T22:54:38Z</time>
      </trkpt>
      <trkpt lat="46.10576" lon="4.50359">
        <ele>516</ele>
        <time>2022-08-31T22:54:42Z</time>
      </trkpt>
      <trkpt lat="46.10576" lon="4.50378">
        <ele>516</ele>
        <time>2022-08-31T22:54:45Z</time>
      </trkpt>
      <trkpt lat="46.1058" lon="4.50392">
        <ele>518</ele>
        <time>2022-08-31T22:54:46Z</time>
      </trkpt>
      <trkpt lat="46.10586" lon="4.50408">
        <ele>519</ele>
        <time>2022-08-31T22:54:49Z</time>
      </trkpt>
      <trkpt lat="46.10595" lon="4.50421">
        <ele>521</ele>
        <time>2022-08-31T22:54:51Z</time>
      </trkpt>
      <trkpt lat="46.10605" lon="4.50431">
        <ele>522</ele>
        <time>2022-08-31T22:54:53Z</time>
      </trkpt>
      <trkpt lat="46.10742" lon="4.50537">
        <ele>541</ele>
        <time>2022-08-31T22:55:21Z</time>
      </trkpt>
      <trkpt lat="46.10753" lon="4.50548">
        <ele>542</ele>
        <time>2022-08-31T22:55:23Z</time>
      </trkpt>
      <trkpt lat="46.10763" lon="4.50561">
        <ele>543</ele>
        <time>2022-08-31T22:55:25Z</time>
      </trkpt>
      <trkpt lat="46.10779" lon="4.50592">
        <ele>543</ele>
        <time>2022-08-31T22:55:30Z</time>
      </trkpt>
      <trkpt lat="46.10806" lon="4.50647">
        <ele>544</ele>
        <time>2022-08-31T22:55:39Z</time>
      </trkpt>
      <trkpt lat="46.10826" lon="4.50678">
        <ele>546</ele>
        <time>2022-08-31T22:55:44Z</time>
      </trkpt>
      <trkpt lat="46.10838" lon="4.50688">
        <ele>549</ele>
        <time>2022-08-31T22:55:46Z</time>
      </trkpt>
      <trkpt lat="46.10846" lon="4.50689">
        <ele>550</ele>
        <time>2022-08-31T22:55:48Z</time>
      </trkpt>
      <trkpt lat="46.10855" lon="4.5069">
        <ele>552</ele>
        <time>2022-08-31T22:55:49Z</time>
      </trkpt>
      <trkpt lat="46.1089" lon="4.5068">
        <ele>562</ele>
        <time>2022-08-31T22:55:56Z</time>
      </trkpt>
      <trkpt lat="46.10905" lon="4.5068">
        <ele>566</ele>
        <time>2022-08-31T22:55:58Z</time>
      </trkpt>
      <trkpt lat="46.10915" lon="4.50683">
        <ele>567</ele>
        <time>2022-08-31T22:56:00Z</time>
      </trkpt>
      <trkpt lat="46.10992" lon="4.50735">
        <ele>581</ele>
        <time>2022-08-31T22:56:15Z</time>
      </trkpt>
      <trkpt lat="46.11003" lon="4.50746">
        <ele>583</ele>
        <time>2022-08-31T22:56:18Z</time>
      </trkpt>
      <trkpt lat="46.11012" lon="4.50764">
        <ele>585</ele>
        <time>2022-08-31T22:56:20Z</time>
      </trkpt>
      <trkpt lat="46.11015" lon="4.50779">
        <ele>585</ele>
        <time>2022-08-31T22:56:22Z</time>
      </trkpt>
      <trkpt lat="46.11012" lon="4.5085">
        <ele>579</ele>
        <time>2022-08-31T22:56:31Z</time>
      </trkpt>
      <trkpt lat="46.11015" lon="4.50866">
        <ele>578</ele>
        <time>2022-08-31T22:56:33Z</time>
      </trkpt>
      <trkpt lat="46.11025" lon="4.50892">
        <ele>578</ele>
        <time>2022-08-31T22:56:37Z</time>
      </trkpt>
      <trkpt lat="46.11033" lon="4.50902">
        <ele>579</ele>
        <time>2022-08-31T22:56:39Z</time>
      </trkpt>
      <trkpt lat="46.11056" lon="4.50921">
        <ele>582</ele>
        <time>2022-08-31T22:56:43Z</time>
      </trkpt>
      <trkpt lat="46.11123" lon="4.50966">
        <ele>588</ele>
        <time>2022-08-31T22:56:57Z</time>
      </trkpt>
      <trkpt lat="46.11139" lon="4.50975">
        <ele>590</ele>
        <time>2022-08-31T22:57:00Z</time>
      </trkpt>
      <trkpt lat="46.11243" lon="4.51008">
        <ele>603</ele>
        <time>2022-08-31T22:57:19Z</time>
      </trkpt>
      <trkpt lat="46.11249" lon="4.51012">
        <ele>603</ele>
        <time>2022-08-31T22:57:20Z</time>
      </trkpt>
      <trkpt lat="46.11261" lon="4.51025">
        <ele>603</ele>
        <time>2022-08-31T22:57:22Z</time>
      </trkpt>
      <trkpt lat="46.11286" lon="4.51074">
        <ele>597</ele>
        <time>2022-08-31T22:57:30Z</time>
      </trkpt>
      <trkpt lat="46.11289" lon="4.51079">
        <ele>596</ele>
        <time>2022-08-31T22:57:31Z</time>
      </trkpt>
      <trkpt lat="46.11307" lon="4.51096">
        <ele>596</ele>
        <time>2022-08-31T22:57:35Z</time>
      </trkpt>
      <trkpt lat="46.11326" lon="4.51105">
        <ele>598</ele>
        <time>2022-08-31T22:57:38Z</time>
      </trkpt>
      <trkpt lat="46.11342" lon="4.51106">
        <ele>599</ele>
        <time>2022-08-31T22:57:41Z</time>
      </trkpt>
      <trkpt lat="46.11368" lon="4.51102">
        <ele>601</ele>
        <time>2022-08-31T22:57:46Z</time>
      </trkpt>
      <trkpt lat="46.11423" lon="4.51075">
        <ele>610</ele>
        <time>2022-08-31T22:57:56Z</time>
      </trkpt>
      <trkpt lat="46.11439" lon="4.51072">
        <ele>614</ele>
        <time>2022-08-31T22:57:59Z</time>
      </trkpt>
      <trkpt lat="46.11449" lon="4.51076">
        <ele>614</ele>
        <time>2022-08-31T22:58:01Z</time>
      </trkpt>
      <trkpt lat="46.1146" lon="4.51093">
        <ele>613</ele>
        <time>2022-08-31T22:58:04Z</time>
      </trkpt>
      <trkpt lat="46.11464" lon="4.51109">
        <ele>612</ele>
        <time>2022-08-31T22:58:06Z</time>
      </trkpt>
      <trkpt lat="46.11468" lon="4.51153">
        <ele>608</ele>
        <time>2022-08-31T22:58:11Z</time>
      </trkpt>
      <trkpt lat="46.11472" lon="4.51171">
        <ele>607</ele>
        <time>2022-08-31T22:58:13Z</time>
      </trkpt>
      <trkpt lat="46.11482" lon="4.51192">
        <ele>607</ele>
        <time>2022-08-31T22:58:17Z</time>
      </trkpt>
      <trkpt lat="46.11491" lon="4.51203">
        <ele>607</ele>
        <time>2022-08-31T22:58:19Z</time>
      </trkpt>
      <trkpt lat="46.11502" lon="4.51212">
        <ele>607</ele>
        <time>2022-08-31T22:58:21Z</time>
      </trkpt>
      <trkpt lat="46.11522" lon="4.51217">
        <ele>609</ele>
        <time>2022-08-31T22:58:25Z</time>
      </trkpt>
      <trkpt lat="46.11533" lon="4.51215">
        <ele>610</ele>
        <time>2022-08-31T22:58:26Z</time>
      </trkpt>
      <trkpt lat="46.11602" lon="4.51182">
        <ele>627</ele>
        <time>2022-08-31T22:58:39Z</time>
      </trkpt>
      <trkpt lat="46.11613" lon="4.51183">
        <ele>629</ele>
        <time>2022-08-31T22:58:41Z</time>
      </trkpt>
      <trkpt lat="46.11621" lon="4.51189">
        <ele>630</ele>
        <time>2022-08-31T22:58:43Z</time>
      </trkpt>
      <trkpt lat="46.11629" lon="4.51199">
        <ele>631</ele>
        <time>2022-08-31T22:58:45Z</time>
      </trkpt>
      <trkpt lat="46.11635" lon="4.51218">
        <ele>630</ele>
        <time>2022-08-31T22:58:47Z</time>
      </trkpt>
      <trkpt lat="46.11653" lon="4.51371">
        <ele>631</ele>
        <time>2022-08-31T22:59:07Z</time>
      </trkpt>
      <trkpt lat="46.11659" lon="4.51403">
        <ele>633</ele>
        <time>2022-08-31T22:59:11Z</time>
      </trkpt>
      <trkpt lat="46.11668" lon="4.51433">
        <ele>634</ele>
        <time>2022-08-31T22:59:15Z</time>
      </trkpt>
      <trkpt lat="46.11705" lon="4.51514">
        <ele>644</ele>
        <time>2022-08-31T22:59:27Z</time>
      </trkpt>
      <trkpt lat="46.11752" lon="4.51681">
        <ele>652</ele>
        <time>2022-08-31T22:59:49Z</time>
      </trkpt>
      <trkpt lat="46.11766" lon="4.51718">
        <ele>652</ele>
        <time>2022-08-31T22:59:54Z</time>
      </trkpt>
      <trkpt lat="46.11785" lon="4.51755">
        <ele>652</ele>
        <time>2022-08-31T23:00:00Z</time>
      </trkpt>
      <trkpt lat="46.11797" lon="4.51773">
        <ele>651</ele>
        <time>2022-08-31T23:00:03Z</time>
      </trkpt>
      <trkpt lat="46.11821" lon="4.51795">
        <ele>651</ele>
        <time>2022-08-31T23:00:08Z</time>
      </trkpt>
      <trkpt lat="46.11833" lon="4.51801">
        <ele>653</ele>
        <time>2022-08-31T23:00:10Z</time>
      </trkpt>
      <trkpt lat="46.11867" lon="4.5181">
        <ele>656</ele>
        <time>2022-08-31T23:00:16Z</time>
      </trkpt>
      <trkpt lat="46.11889" lon="4.51811">
        <ele>659</ele>
        <time>2022-08-31T23:00:20Z</time>
      </trkpt>
      <trkpt lat="46.11962" lon="4.51771">
        <ele>677</ele>
        <time>2022-08-31T23:00:34Z</time>
      </trkpt>
      <trkpt lat="46.11976" lon="4.51769">
        <ele>678</ele>
        <time>2022-08-31T23:00:37Z</time>
      </trkpt>
      <trkpt lat="46.1199" lon="4.51775">
        <ele>678</ele>
        <time>2022-08-31T23:00:39Z</time>
      </trkpt>
      <trkpt lat="46.11996" lon="4.51782">
        <ele>678</ele>
        <time>2022-08-31T23:00:41Z</time>
      </trkpt>
      <trkpt lat="46.12" lon="4.51797">
        <ele>678</ele>
        <time>2022-08-31T23:00:43Z</time>
      </trkpt>
      <trkpt lat="46.12" lon="4.5182">
        <ele>677</ele>
        <time>2022-08-31T23:00:45Z</time>
      </trkpt>
      <trkpt lat="46.11982" lon="4.51892">
        <ele>675</ele>
        <time>2022-08-31T23:00:55Z</time>
      </trkpt>
      <trkpt lat="46.11928" lon="4.52083">
        <ele>682</ele>
        <time>2022-08-31T23:01:20Z</time>
      </trkpt>
      <trkpt lat="46.11924" lon="4.52104">
        <ele>683</ele>
        <time>2022-08-31T23:01:23Z</time>
      </trkpt>
      <trkpt lat="46.11923" lon="4.5213">
        <ele>684</ele>
        <time>2022-08-31T23:01:26Z</time>
      </trkpt>
      <trkpt lat="46.11927" lon="4.52169">
        <ele>687</ele>
        <time>2022-08-31T23:01:31Z</time>
      </trkpt>
      <trkpt lat="46.11996" lon="4.52644">
        <ele>716</ele>
        <time>2022-08-31T23:02:31Z</time>
      </trkpt>
      <trkpt lat="46.11997" lon="4.52662">
        <ele>716</ele>
        <time>2022-08-31T23:02:33Z</time>
      </trkpt>
      <trkpt lat="46.11996" lon="4.52698">
        <ele>717</ele>
        <time>2022-08-31T23:02:38Z</time>
      </trkpt>
      <trkpt lat="46.11985" lon="4.5289">
        <ele>725</ele>
        <time>2022-08-31T23:03:01Z</time>
      </trkpt>
      <trkpt lat="46.11985" lon="4.52907">
        <ele>726</ele>
        <time>2022-08-31T23:03:03Z</time>
      </trkpt>
      <trkpt lat="46.11993" lon="4.52938">
        <ele>728</ele>
        <time>2022-08-31T23:03:08Z</time>
      </trkpt>
      <trkpt lat="46.11997" lon="4.52946">
        <ele>729</ele>
        <time>2022-08-31T23:03:09Z</time>
      </trkpt>
      <trkpt lat="46.12008" lon="4.52961">
        <ele>731</ele>
        <time>2022-08-31T23:03:11Z</time>
      </trkpt>
      <trkpt lat="46.12021" lon="4.52974">
        <ele>733</ele>
        <time>2022-08-31T23:03:14Z</time>
      </trkpt>
      <trkpt lat="46.1209" lon="4.53009">
        <ele>740</ele>
        <time>2022-08-31T23:03:27Z</time>
      </trkpt>
      <trkpt lat="46.12116" lon="4.53021">
        <ele>742</ele>
        <time>2022-08-31T23:03:32Z</time>
      </trkpt>
      <trkpt lat="46.12126" lon="4.53007">
        <ele>744</ele>
        <time>2022-08-31T23:03:35Z</time>
      </trkpt>
      <trkpt lat="46.12146" lon="4.53">
        <ele>746</ele>
        <time>2022-08-31T23:03:38Z</time>
      </trkpt>
      <trkpt lat="46.12166" lon="4.52986">
        <ele>748</ele>
        <time>2022-08-31T23:03:42Z</time>
      </trkpt>
      <trkpt lat="46.12187" lon="4.52965">
        <ele>750</ele>
        <time>2022-08-31T23:03:47Z</time>
      </trkpt>
      <trkpt lat="46.12214" lon="4.52926">
        <ele>753</ele>
        <time>2022-08-31T23:03:54Z</time>
      </trkpt>
      <trkpt lat="46.12237" lon="4.52908">
        <ele>757</ele>
        <time>2022-08-31T23:03:58Z</time>
      </trkpt>
      <trkpt lat="46.12359" lon="4.52842">
        <ele>758</ele>
        <time>2022-08-31T23:04:21Z</time>
      </trkpt>
      <trkpt lat="46.12402" lon="4.52834">
        <ele>755</ele>
        <time>2022-08-31T23:04:29Z</time>
      </trkpt>
      <trkpt lat="46.12435" lon="4.52825">
        <ele>754</ele>
        <time>2022-08-31T23:04:35Z</time>
      </trkpt>
      <trkpt lat="46.12496" lon="4.52768">
        <ele>763</ele>
        <time>2022-08-31T23:04:48Z</time>
      </trkpt>
      <trkpt lat="46.1261" lon="4.52713">
        <ele>767</ele>
        <time>2022-08-31T23:05:09Z</time>
      </trkpt>
      <trkpt lat="46.12709" lon="4.52683">
        <ele>761</ele>
        <time>2022-08-31T23:05:27Z</time>
      </trkpt>
      <trkpt lat="46.12736" lon="4.52667">
        <ele>758</ele>
        <time>2022-08-31T23:05:33Z</time>
      </trkpt>
      <trkpt lat="46.12788" lon="4.52623">
        <ele>752</ele>
        <time>2022-08-31T23:05:43Z</time>
      </trkpt>
      <trkpt lat="46.12823" lon="4.52597">
        <ele>747</ele>
        <time>2022-08-31T23:05:50Z</time>
      </trkpt>
      <trkpt lat="46.12862" lon="4.52551">
        <ele>748</ele>
        <time>2022-08-31T23:05:59Z</time>
      </trkpt>
      <trkpt lat="46.12885" lon="4.52528">
        <ele>748</ele>
        <time>2022-08-31T23:06:04Z</time>
      </trkpt>
      <trkpt lat="46.12914" lon="4.52513">
        <ele>744</ele>
        <time>2022-08-31T23:06:10Z</time>
      </trkpt>
      <trkpt lat="46.12945" lon="4.52492">
        <ele>742</ele>
        <time>2022-08-31T23:06:16Z</time>
      </trkpt>
      <trkpt lat="46.12966" lon="4.52467">
        <ele>742</ele>
        <time>2022-08-31T23:06:21Z</time>
      </trkpt>
      <trkpt lat="46.12982" lon="4.5244">
        <ele>743</ele>
        <time>2022-08-31T23:06:25Z</time>
      </trkpt>
      <trkpt lat="46.12991" lon="4.52426">
        <ele>744</ele>
        <time>2022-08-31T23:06:27Z</time>
      </trkpt>
      <trkpt lat="46.13009" lon="4.52413">
        <ele>745</ele>
        <time>2022-08-31T23:06:31Z</time>
      </trkpt>
      <trkpt lat="46.1303" lon="4.5241">
        <ele>746</ele>
        <time>2022-08-31T23:06:35Z</time>
      </trkpt>
      <trkpt lat="46.13065" lon="4.5243">
        <ele>743</ele>
        <time>2022-08-31T23:06:41Z</time>
      </trkpt>
      <trkpt lat="46.131" lon="4.52462">
        <ele>739</ele>
        <time>2022-08-31T23:06:49Z</time>
      </trkpt>
      <trkpt lat="46.13128" lon="4.52481">
        <ele>740</ele>
        <time>2022-08-31T23:06:54Z</time>
      </trkpt>
      <trkpt lat="46.13183" lon="4.52511">
        <ele>744</ele>
        <time>2022-08-31T23:07:05Z</time>
      </trkpt>
      <trkpt lat="46.13225" lon="4.52542">
        <ele>745</ele>
        <time>2022-08-31T23:07:13Z</time>
      </trkpt>
      <trkpt lat="46.13278" lon="4.52593">
        <ele>745</ele>
        <time>2022-08-31T23:07:25Z</time>
      </trkpt>
      <trkpt lat="46.1331" lon="4.52626">
        <ele>744</ele>
        <time>2022-08-31T23:07:32Z</time>
      </trkpt>
      <trkpt lat="46.13333" lon="4.52642">
        <ele>745</ele>
        <time>2022-08-31T23:07:36Z</time>
      </trkpt>
      <trkpt lat="46.13367" lon="4.52658">
        <ele>749</ele>
        <time>2022-08-31T23:07:42Z</time>
      </trkpt>
      <trkpt lat="46.13391" lon="4.52681">
        <ele>749</ele>
        <time>2022-08-31T23:07:48Z</time>
      </trkpt>
      <trkpt lat="46.13422" lon="4.52719">
        <ele>748</ele>
        <time>2022-08-31T23:07:55Z</time>
      </trkpt>
      <trkpt lat="46.13457" lon="4.52759">
        <ele>746</ele>
        <time>2022-08-31T23:08:03Z</time>
      </trkpt>
      <trkpt lat="46.13509" lon="4.52801">
        <ele>745</ele>
        <time>2022-08-31T23:08:13Z</time>
      </trkpt>
      <trkpt lat="46.13536" lon="4.5282">
        <ele>745</ele>
        <time>2022-08-31T23:08:19Z</time>
      </trkpt>
      <trkpt lat="46.13634" lon="4.52853">
        <ele>751</ele>
        <time>2022-08-31T23:08:37Z</time>
      </trkpt>
      <trkpt lat="46.13671" lon="4.52875">
        <ele>750</ele>
        <time>2022-08-31T23:08:44Z</time>
      </trkpt>
      <trkpt lat="46.13716" lon="4.52914">
        <ele>746</ele>
        <time>2022-08-31T23:08:53Z</time>
      </trkpt>
      <trkpt lat="46.13787" lon="4.52968">
        <ele>741</ele>
        <time>2022-08-31T23:09:07Z</time>
      </trkpt>
      <trkpt lat="46.13854" lon="4.52995">
        <ele>738</ele>
        <time>2022-08-31T23:09:20Z</time>
      </trkpt>
      <trkpt lat="46.13913" lon="4.52997">
        <ele>734</ele>
        <time>2022-08-31T23:09:30Z</time>
      </trkpt>
      <trkpt lat="46.1394" lon="4.52983">
        <ele>730</ele>
        <time>2022-08-31T23:09:35Z</time>
      </trkpt>
      <trkpt lat="46.13963" lon="4.52957">
        <ele>726</ele>
        <time>2022-08-31T23:09:41Z</time>
      </trkpt>
      <trkpt lat="46.13974" lon="4.52931">
        <ele>726</ele>
        <time>2022-08-31T23:09:44Z</time>
      </trkpt>
      <trkpt lat="46.13977" lon="4.52893">
        <ele>725</ele>
        <time>2022-08-31T23:09:49Z</time>
      </trkpt>
      <trkpt lat="46.13969" lon="4.5285">
        <ele>724</ele>
        <time>2022-08-31T23:09:54Z</time>
      </trkpt>
      <trkpt lat="46.13915" lon="4.5271">
        <ele>733</ele>
        <time>2022-08-31T23:10:14Z</time>
      </trkpt>
      <trkpt lat="46.13903" lon="4.52674">
        <ele>734</ele>
        <time>2022-08-31T23:10:19Z</time>
      </trkpt>
      <trkpt lat="46.13894" lon="4.52625">
        <ele>734</ele>
        <time>2022-08-31T23:10:25Z</time>
      </trkpt>
      <trkpt lat="46.1389" lon="4.52562">
        <ele>732</ele>
        <time>2022-08-31T23:10:33Z</time>
      </trkpt>
      <trkpt lat="46.13891" lon="4.52463">
        <ele>727</ele>
        <time>2022-08-31T23:10:45Z</time>
      </trkpt>
      <trkpt lat="46.13898" lon="4.52336">
        <ele>725</ele>
        <time>2022-08-31T23:11:01Z</time>
      </trkpt>
      <trkpt lat="46.13897" lon="4.52264">
        <ele>723</ele>
        <time>2022-08-31T23:11:10Z</time>
      </trkpt>
      <trkpt lat="46.13889" lon="4.52195">
        <ele>723</ele>
        <time>2022-08-31T23:11:19Z</time>
      </trkpt>
      <trkpt lat="46.1386" lon="4.5203">
        <ele>729</ele>
        <time>2022-08-31T23:11:40Z</time>
      </trkpt>
      <trkpt lat="46.13859" lon="4.51995">
        <ele>728</ele>
        <time>2022-08-31T23:11:44Z</time>
      </trkpt>
      <trkpt lat="46.1386" lon="4.51892">
        <ele>722</ele>
        <time>2022-08-31T23:11:57Z</time>
      </trkpt>
      <trkpt lat="46.13865" lon="4.5182">
        <ele>721</ele>
        <time>2022-08-31T23:12:06Z</time>
      </trkpt>
      <trkpt lat="46.13879" lon="4.51752">
        <ele>715</ele>
        <time>2022-08-31T23:12:14Z</time>
      </trkpt>
      <trkpt lat="46.13911" lon="4.51621">
        <ele>709</ele>
        <time>2022-08-31T23:12:31Z</time>
      </trkpt>
      <trkpt lat="46.13942" lon="4.51541">
        <ele>700</ele>
        <time>2022-08-31T23:12:43Z</time>
      </trkpt>
      <trkpt lat="46.13982" lon="4.51456">
        <ele>691</ele>
        <time>2022-08-31T23:12:55Z</time>
      </trkpt>
      <trkpt lat="46.14057" lon="4.51322">
        <ele>680</ele>
        <time>2022-08-31T23:13:17Z</time>
      </trkpt>
      <trkpt lat="46.1409" lon="4.51286">
        <ele>678</ele>
        <time>2022-08-31T23:13:24Z</time>
      </trkpt>
      <trkpt lat="46.14164" lon="4.51173">
        <ele>680</ele>
        <time>2022-08-31T23:13:43Z</time>
      </trkpt>
      <trkpt lat="46.14207" lon="4.51157">
        <ele>681</ele>
        <time>2022-08-31T23:13:51Z</time>
      </trkpt>
      <trkpt lat="46.14277" lon="4.51159">
        <ele>680</ele>
        <time>2022-08-31T23:14:04Z</time>
      </trkpt>
      <trkpt lat="46.14326" lon="4.51129">
        <ele>682</ele>
        <time>2022-08-31T23:14:13Z</time>
      </trkpt>
      <trkpt lat="46.14364" lon="4.51109">
        <ele>685</ele>
        <time>2022-08-31T23:14:20Z</time>
      </trkpt>
      <trkpt lat="46.1441" lon="4.51109">
        <ele>686</ele>
        <time>2022-08-31T23:14:28Z</time>
      </trkpt>
      <trkpt lat="46.14453" lon="4.51119">
        <ele>689</ele>
        <time>2022-08-31T23:14:36Z</time>
      </trkpt>
      <trkpt lat="46.14484" lon="4.51138">
        <ele>689</ele>
        <time>2022-08-31T23:14:42Z</time>
      </trkpt>
      <trkpt lat="46.14517" lon="4.5119">
        <ele>681</ele>
        <time>2022-08-31T23:14:51Z</time>
      </trkpt>
      <trkpt lat="46.14533" lon="4.51247">
        <ele>674</ele>
        <time>2022-08-31T23:14:58Z</time>
      </trkpt>
      <trkpt lat="46.14547" lon="4.51284">
        <ele>670</ele>
        <time>2022-08-31T23:15:04Z</time>
      </trkpt>
      <trkpt lat="46.14565" lon="4.513">
        <ele>669</ele>
        <time>2022-08-31T23:15:07Z</time>
      </trkpt>
      <trkpt lat="46.1461" lon="4.51307">
        <ele>669</ele>
        <time>2022-08-31T23:15:15Z</time>
      </trkpt>
      <trkpt lat="46.14677" lon="4.51313">
        <ele>667</ele>
        <time>2022-08-31T23:15:27Z</time>
      </trkpt>
      <trkpt lat="46.14685" lon="4.513">
        <ele>669</ele>
        <time>2022-08-31T23:15:29Z</time>
      </trkpt>
      <trkpt lat="46.14712" lon="4.51267">
        <ele>672</ele>
        <time>2022-08-31T23:15:36Z</time>
      </trkpt>
      <trkpt lat="46.14731" lon="4.51261">
        <ele>671</ele>
        <time>2022-08-31T23:15:39Z</time>
      </trkpt>
      <trkpt lat="46.14745" lon="4.51257">
        <ele>671</ele>
        <time>2022-08-31T23:15:42Z</time>
      </trkpt>
      <trkpt lat="46.148" lon="4.5121">
        <ele>674</ele>
        <time>2022-08-31T23:15:53Z</time>
      </trkpt>
      <trkpt lat="46.14811" lon="4.51189">
        <ele>677</ele>
        <time>2022-08-31T23:15:56Z</time>
      </trkpt>
      <trkpt lat="46.14834" lon="4.51196">
        <ele>675</ele>
        <time>2022-08-31T23:16:01Z</time>
      </trkpt>
      <trkpt lat="46.14868" lon="4.51216">
        <ele>673</ele>
        <time>2022-08-31T23:16:07Z</time>
      </trkpt>
      <trkpt lat="46.14891" lon="4.51243">
        <ele>668</ele>
        <time>2022-08-31T23:16:12Z</time>
      </trkpt>
      <trkpt lat="46.14902" lon="4.51252">
        <ele>667</ele>
        <time>2022-08-31T23:16:15Z</time>
      </trkpt>
      <trkpt lat="46.14915" lon="4.51258">
        <ele>666</ele>
        <time>2022-08-31T23:16:17Z</time>
      </trkpt>
      <trkpt lat="46.15058" lon="4.51276">
        <ele>656</ele>
        <time>2022-08-31T23:16:43Z</time>
      </trkpt>
      <trkpt lat="46.15119" lon="4.51267">
        <ele>654</ele>
        <time>2022-08-31T23:16:54Z</time>
      </trkpt>
      <trkpt lat="46.1513" lon="4.51271">
        <ele>652</ele>
        <time>2022-08-31T23:16:56Z</time>
      </trkpt>
      <trkpt lat="46.15138" lon="4.51279">
        <ele>651</ele>
        <time>2022-08-31T23:16:57Z</time>
      </trkpt>
      <trkpt lat="46.15145" lon="4.51294">
        <ele>649</ele>
        <time>2022-08-31T23:17:00Z</time>
      </trkpt>
      <trkpt lat="46.15155" lon="4.51323">
        <ele>646</ele>
        <time>2022-08-31T23:17:04Z</time>
      </trkpt>
      <trkpt lat="46.15168" lon="4.51349">
        <ele>645</ele>
        <time>2022-08-31T23:17:07Z</time>
      </trkpt>
      <trkpt lat="46.15181" lon="4.51363">
        <ele>644</ele>
        <time>2022-08-31T23:17:10Z</time>
      </trkpt>
      <trkpt lat="46.15223" lon="4.51402">
        <ele>642</ele>
        <time>2022-08-31T23:17:19Z</time>
      </trkpt>
      <trkpt lat="46.15232" lon="4.51419">
        <ele>640</ele>
        <time>2022-08-31T23:17:22Z</time>
      </trkpt>
      <trkpt lat="46.15269" lon="4.5154">
        <ele>632</ele>
        <time>2022-08-31T23:17:38Z</time>
      </trkpt>
      <trkpt lat="46.15278" lon="4.51564">
        <ele>631</ele>
        <time>2022-08-31T23:17:42Z</time>
      </trkpt>
      <trkpt lat="46.15297" lon="4.51595">
        <ele>630</ele>
        <time>2022-08-31T23:17:47Z</time>
      </trkpt>
      <trkpt lat="46.15337" lon="4.5164">
        <ele>627</ele>
        <time>2022-08-31T23:17:56Z</time>
      </trkpt>
      <trkpt lat="46.15344" lon="4.51651">
        <ele>626</ele>
        <time>2022-08-31T23:17:57Z</time>
      </trkpt>
      <trkpt lat="46.15357" lon="4.51683">
        <ele>624</ele>
        <time>2022-08-31T23:18:02Z</time>
      </trkpt>
      <trkpt lat="46.15364" lon="4.51715">
        <ele>623</ele>
        <time>2022-08-31T23:18:06Z</time>
      </trkpt>
      <trkpt lat="46.15362" lon="4.51731">
        <ele>622</ele>
        <time>2022-08-31T23:18:08Z</time>
      </trkpt>
      <trkpt lat="46.15351" lon="4.51751">
        <ele>618</ele>
        <time>2022-08-31T23:18:11Z</time>
      </trkpt>
      <trkpt lat="46.15303" lon="4.51819">
        <ele>611</ele>
        <time>2022-08-31T23:18:23Z</time>
      </trkpt>
      <trkpt lat="46.15286" lon="4.51852">
        <ele>608</ele>
        <time>2022-08-31T23:18:28Z</time>
      </trkpt>
      <trkpt lat="46.15276" lon="4.51895">
        <ele>606</ele>
        <time>2022-08-31T23:18:34Z</time>
      </trkpt>
      <trkpt lat="46.15272" lon="4.51925">
        <ele>605</ele>
        <time>2022-08-31T23:18:38Z</time>
      </trkpt>
      <trkpt lat="46.15278" lon="4.51989">
        <ele>605</ele>
        <time>2022-08-31T23:18:46Z</time>
      </trkpt>
      <trkpt lat="46.15279" lon="4.52044">
        <ele>604</ele>
        <time>2022-08-31T23:18:52Z</time>
      </trkpt>
      <trkpt lat="46.1527" lon="4.52135">
        <ele>599</ele>
        <time>2022-08-31T23:19:04Z</time>
      </trkpt>
      <trkpt lat="46.15304" lon="4.52176">
        <ele>606</ele>
        <time>2022-08-31T23:19:12Z</time>
      </trkpt>
      <trkpt lat="46.15335" lon="4.52231">
        <ele>611</ele>
        <time>2022-08-31T23:19:20Z</time>
      </trkpt>
      <trkpt lat="46.15343" lon="4.52274">
        <ele>612</ele>
        <time>2022-08-31T23:19:26Z</time>
      </trkpt>
      <trkpt lat="46.15357" lon="4.5239">
        <ele>618</ele>
        <time>2022-08-31T23:19:40Z</time>
      </trkpt>
      <trkpt lat="46.15365" lon="4.52617">
        <ele>635</ele>
        <time>2022-08-31T23:20:08Z</time>
      </trkpt>
      <trkpt lat="46.15362" lon="4.52675">
        <ele>639</ele>
        <time>2022-08-31T23:20:16Z</time>
      </trkpt>
      <trkpt lat="46.15364" lon="4.52684">
        <ele>640</ele>
        <time>2022-08-31T23:20:17Z</time>
      </trkpt>
      <trkpt lat="46.15368" lon="4.52691">
        <ele>641</ele>
        <time>2022-08-31T23:20:18Z</time>
      </trkpt>
      <trkpt lat="46.15375" lon="4.52691">
        <ele>643</ele>
        <time>2022-08-31T23:20:19Z</time>
      </trkpt>
      <trkpt lat="46.15379" lon="4.52688">
        <ele>644</ele>
        <time>2022-08-31T23:20:20Z</time>
      </trkpt>
      <trkpt lat="46.1539" lon="4.52669">
        <ele>645</ele>
        <time>2022-08-31T23:20:23Z</time>
      </trkpt>
      <trkpt lat="46.15444" lon="4.52588">
        <ele>654</ele>
        <time>2022-08-31T23:20:37Z</time>
      </trkpt>
      <trkpt lat="46.15486" lon="4.52531">
        <ele>663</ele>
        <time>2022-08-31T23:20:47Z</time>
      </trkpt>
      <trkpt lat="46.15493" lon="4.52518">
        <ele>665</ele>
        <time>2022-08-31T23:20:49Z</time>
      </trkpt>
      <trkpt lat="46.15507" lon="4.52473">
        <ele>668</ele>
        <time>2022-08-31T23:20:55Z</time>
      </trkpt>
      <trkpt lat="46.15508" lon="4.52459">
        <ele>668</ele>
        <time>2022-08-31T23:20:57Z</time>
      </trkpt>
      <trkpt lat="46.1551" lon="4.52454">
        <ele>668</ele>
        <time>2022-08-31T23:20:58Z</time>
      </trkpt>
      <trkpt lat="46.15516" lon="4.52452">
        <ele>671</ele>
        <time>2022-08-31T23:20:59Z</time>
      </trkpt>
      <trkpt lat="46.15523" lon="4.52454">
        <ele>674</ele>
        <time>2022-08-31T23:21:00Z</time>
      </trkpt>
      <trkpt lat="46.15525" lon="4.52461">
        <ele>675</ele>
        <time>2022-08-31T23:21:01Z</time>
      </trkpt>
      <trkpt lat="46.15525" lon="4.52477">
        <ele>675</ele>
        <time>2022-08-31T23:21:03Z</time>
      </trkpt>
      <trkpt lat="46.15524" lon="4.52513">
        <ele>677</ele>
        <time>2022-08-31T23:21:07Z</time>
      </trkpt>
      <trkpt lat="46.15525" lon="4.52562">
        <ele>678</ele>
        <time>2022-08-31T23:21:13Z</time>
      </trkpt>
      <trkpt lat="46.15535" lon="4.52723">
        <ele>684</ele>
        <time>2022-08-31T23:21:33Z</time>
      </trkpt>
      <trkpt lat="46.15539" lon="4.52754">
        <ele>685</ele>
        <time>2022-08-31T23:21:37Z</time>
      </trkpt>
      <trkpt lat="46.15547" lon="4.52785">
        <ele>685</ele>
        <time>2022-08-31T23:21:41Z</time>
      </trkpt>
      <trkpt lat="46.15562" lon="4.52815">
        <ele>686</ele>
        <time>2022-08-31T23:21:46Z</time>
      </trkpt>
      <trkpt lat="46.15596" lon="4.52844">
        <ele>691</ele>
        <time>2022-08-31T23:21:53Z</time>
      </trkpt>
      <trkpt lat="46.15683" lon="4.52901">
        <ele>698</ele>
        <time>2022-08-31T23:22:10Z</time>
      </trkpt>
      <trkpt lat="46.15705" lon="4.52909">
        <ele>700</ele>
        <time>2022-08-31T23:22:14Z</time>
      </trkpt>
      <trkpt lat="46.1573" lon="4.52907">
        <ele>705</ele>
        <time>2022-08-31T23:22:18Z</time>
      </trkpt>
      <trkpt lat="46.15743" lon="4.52912">
        <ele>706</ele>
        <time>2022-08-31T23:22:21Z</time>
      </trkpt>
      <trkpt lat="46.15757" lon="4.52936">
        <ele>705</ele>
        <time>2022-08-31T23:22:25Z</time>
      </trkpt>
      <trkpt lat="46.15813" lon="4.52998">
        <ele>711</ele>
        <time>2022-08-31T23:22:37Z</time>
      </trkpt>
      <trkpt lat="46.15838" lon="4.5304">
        <ele>713</ele>
        <time>2022-08-31T23:22:44Z</time>
      </trkpt>
      <trkpt lat="46.15854" lon="4.53079">
        <ele>715</ele>
        <time>2022-08-31T23:22:50Z</time>
      </trkpt>
      <trkpt lat="46.1589" lon="4.53274">
        <ele>710</ele>
        <time>2022-08-31T23:23:14Z</time>
      </trkpt>
      <trkpt lat="46.15905" lon="4.53301">
        <ele>711</ele>
        <time>2022-08-31T23:23:19Z</time>
      </trkpt>
      <trkpt lat="46.15923" lon="4.53317">
        <ele>712</ele>
        <time>2022-08-31T23:23:23Z</time>
      </trkpt>
      <trkpt lat="46.15987" lon="4.53341">
        <ele>712</ele>
        <time>2022-08-31T23:23:34Z</time>
      </trkpt>
      <trkpt lat="46.16009" lon="4.53345">
        <ele>710</ele>
        <time>2022-08-31T23:23:38Z</time>
      </trkpt>
      <trkpt lat="46.1604" lon="4.53339">
        <ele>707</ele>
        <time>2022-08-31T23:23:44Z</time>
      </trkpt>
      <trkpt lat="46.16059" lon="4.53325">
        <ele>707</ele>
        <time>2022-08-31T23:23:48Z</time>
      </trkpt>
      <trkpt lat="46.16127" lon="4.5326">
        <ele>706</ele>
        <time>2022-08-31T23:24:02Z</time>
      </trkpt>
      <trkpt lat="46.16284" lon="4.5309">
        <ele>683</ele>
        <time>2022-08-31T23:24:37Z</time>
      </trkpt>
      <trkpt lat="46.1634" lon="4.5302">
        <ele>677</ele>
        <time>2022-08-31T23:24:50Z</time>
      </trkpt>
      <trkpt lat="46.16351" lon="4.52983">
        <ele>675</ele>
        <time>2022-08-31T23:24:55Z</time>
      </trkpt>
      <trkpt lat="46.16359" lon="4.52941">
        <ele>673</ele>
        <time>2022-08-31T23:25:01Z</time>
      </trkpt>
      <trkpt lat="46.16366" lon="4.52855">
        <ele>669</ele>
        <time>2022-08-31T23:25:11Z</time>
      </trkpt>
      <trkpt lat="46.1637" lon="4.52693">
        <ele>670</ele>
        <time>2022-08-31T23:25:31Z</time>
      </trkpt>
      <trkpt lat="46.1637" lon="4.52635">
        <ele>670</ele>
        <time>2022-08-31T23:25:38Z</time>
      </trkpt>
      <trkpt lat="46.16378" lon="4.52595">
        <ele>669</ele>
        <time>2022-08-31T23:25:43Z</time>
      </trkpt>
      <trkpt lat="46.16392" lon="4.52543">
        <ele>667</ele>
        <time>2022-08-31T23:25:50Z</time>
      </trkpt>
      <trkpt lat="46.16408" lon="4.5244">
        <ele>668</ele>
        <time>2022-08-31T23:26:03Z</time>
      </trkpt>
      <trkpt lat="46.16425" lon="4.52379">
        <ele>667</ele>
        <time>2022-08-31T23:26:11Z</time>
      </trkpt>
      <trkpt lat="46.16446" lon="4.52316">
        <ele>663</ele>
        <time>2022-08-31T23:26:20Z</time>
      </trkpt>
      <trkpt lat="46.16477" lon="4.52093">
        <ele>658</ele>
        <time>2022-08-31T23:26:48Z</time>
      </trkpt>
      <trkpt lat="46.16477" lon="4.5207">
        <ele>658</ele>
        <time>2022-08-31T23:26:51Z</time>
      </trkpt>
      <trkpt lat="46.16471" lon="4.51949">
        <ele>663</ele>
        <time>2022-08-31T23:27:06Z</time>
      </trkpt>
      <trkpt lat="46.16464" lon="4.51895">
        <ele>666</ele>
        <time>2022-08-31T23:27:13Z</time>
      </trkpt>
      <trkpt lat="46.16437" lon="4.51779">
        <ele>674</ele>
        <time>2022-08-31T23:27:28Z</time>
      </trkpt>
      <trkpt lat="46.16421" lon="4.51677">
        <ele>682</ele>
        <time>2022-08-31T23:27:41Z</time>
      </trkpt>
      <trkpt lat="46.16422" lon="4.51652">
        <ele>684</ele>
        <time>2022-08-31T23:27:44Z</time>
      </trkpt>
      <trkpt lat="46.1643" lon="4.51624">
        <ele>686</ele>
        <time>2022-08-31T23:27:47Z</time>
      </trkpt>
      <trkpt lat="46.16443" lon="4.51596">
        <ele>686</ele>
        <time>2022-08-31T23:27:52Z</time>
      </trkpt>
      <trkpt lat="46.16516" lon="4.51514">
        <ele>683</ele>
        <time>2022-08-31T23:28:08Z</time>
      </trkpt>
      <trkpt lat="46.16537" lon="4.51509">
        <ele>682</ele>
        <time>2022-08-31T23:28:12Z</time>
      </trkpt>
      <trkpt lat="46.16555" lon="4.51516">
        <ele>679</ele>
        <time>2022-08-31T23:28:15Z</time>
      </trkpt>
      <trkpt lat="46.16616" lon="4.51554">
        <ele>671</ele>
        <time>2022-08-31T23:28:27Z</time>
      </trkpt>
      <trkpt lat="46.16623" lon="4.51563">
        <ele>670</ele>
        <time>2022-08-31T23:28:29Z</time>
      </trkpt>
      <trkpt lat="46.1663" lon="4.51572">
        <ele>668</ele>
        <time>2022-08-31T23:28:30Z</time>
      </trkpt>
      <trkpt lat="46.16643" lon="4.51598">
        <ele>666</ele>
        <time>2022-08-31T23:28:34Z</time>
      </trkpt>
      <trkpt lat="46.16651" lon="4.51631">
        <ele>663</ele>
        <time>2022-08-31T23:28:39Z</time>
      </trkpt>
      <trkpt lat="46.16703" lon="4.51739">
        <ele>655</ele>
        <time>2022-08-31T23:28:55Z</time>
      </trkpt>
      <trkpt lat="46.16727" lon="4.51769">
        <ele>654</ele>
        <time>2022-08-31T23:29:00Z</time>
      </trkpt>
      <trkpt lat="46.16767" lon="4.51797">
        <ele>653</ele>
        <time>2022-08-31T23:29:08Z</time>
      </trkpt>
      <trkpt lat="46.16825" lon="4.51829">
        <ele>652</ele>
        <time>2022-08-31T23:29:19Z</time>
      </trkpt>
      <trkpt lat="46.16865" lon="4.51859">
        <ele>648</ele>
        <time>2022-08-31T23:29:27Z</time>
      </trkpt>
      <trkpt lat="46.16938" lon="4.51892">
        <ele>646</ele>
        <time>2022-08-31T23:29:41Z</time>
      </trkpt>
      <trkpt lat="46.16991" lon="4.51902">
        <ele>644</ele>
        <time>2022-08-31T23:29:51Z</time>
      </trkpt>
      <trkpt lat="46.1703" lon="4.51922">
        <ele>643</ele>
        <time>2022-08-31T23:29:58Z</time>
      </trkpt>
      <trkpt lat="46.17055" lon="4.51938">
        <ele>643</ele>
        <time>2022-08-31T23:30:03Z</time>
      </trkpt>
      <trkpt lat="46.17067" lon="4.51952">
        <ele>643</ele>
        <time>2022-08-31T23:30:05Z</time>
      </trkpt>
      <trkpt lat="46.17076" lon="4.51969">
        <ele>641</ele>
        <time>2022-08-31T23:30:08Z</time>
      </trkpt>
      <trkpt lat="46.1709" lon="4.52021">
        <ele>638</ele>
        <time>2022-08-31T23:30:15Z</time>
      </trkpt>
      <trkpt lat="46.17115" lon="4.52145">
        <ele>634</ele>
        <time>2022-08-31T23:30:31Z</time>
      </trkpt>
      <trkpt lat="46.17126" lon="4.52178">
        <ele>633</ele>
        <time>2022-08-31T23:30:35Z</time>
      </trkpt>
      <trkpt lat="46.1716" lon="4.5226">
        <ele>628</ele>
        <time>2022-08-31T23:30:47Z</time>
      </trkpt>
      <trkpt lat="46.17171" lon="4.52278">
        <ele>627</ele>
        <time>2022-08-31T23:30:50Z</time>
      </trkpt>
      <trkpt lat="46.1719" lon="4.52297">
        <ele>626</ele>
        <time>2022-08-31T23:30:54Z</time>
      </trkpt>
      <trkpt lat="46.17345" lon="4.52437">
        <ele>629</ele>
        <time>2022-08-31T23:31:27Z</time>
      </trkpt>
      <trkpt lat="46.17362" lon="4.5246">
        <ele>629</ele>
        <time>2022-08-31T23:31:31Z</time>
      </trkpt>
      <trkpt lat="46.17373" lon="4.52485">
        <ele>629</ele>
        <time>2022-08-31T23:31:35Z</time>
      </trkpt>
      <trkpt lat="46.17408" lon="4.52632">
        <ele>628</ele>
        <time>2022-08-31T23:31:54Z</time>
      </trkpt>
      <trkpt lat="46.17415" lon="4.52649">
        <ele>629</ele>
        <time>2022-08-31T23:31:56Z</time>
      </trkpt>
      <trkpt lat="46.17429" lon="4.52674">
        <ele>628</ele>
        <time>2022-08-31T23:32:00Z</time>
      </trkpt>
      <trkpt lat="46.17442" lon="4.52687">
        <ele>628</ele>
        <time>2022-08-31T23:32:03Z</time>
      </trkpt>
      <trkpt lat="46.17478" lon="4.52707">
        <ele>627</ele>
        <time>2022-08-31T23:32:10Z</time>
      </trkpt>
      <trkpt lat="46.17524" lon="4.52706">
        <ele>625</ele>
        <time>2022-08-31T23:32:18Z</time>
      </trkpt>
      <trkpt lat="46.17545" lon="4.52695">
        <ele>623</ele>
        <time>2022-08-31T23:32:22Z</time>
      </trkpt>
      <trkpt lat="46.17558" lon="4.52679">
        <ele>622</ele>
        <time>2022-08-31T23:32:25Z</time>
      </trkpt>
      <trkpt lat="46.17565" lon="4.52661">
        <ele>622</ele>
        <time>2022-08-31T23:32:28Z</time>
      </trkpt>
      <trkpt lat="46.17567" lon="4.52643">
        <ele>622</ele>
        <time>2022-08-31T23:32:30Z</time>
      </trkpt>
      <trkpt lat="46.17566" lon="4.52618">
        <ele>623</ele>
        <time>2022-08-31T23:32:33Z</time>
      </trkpt>
      <trkpt lat="46.17554" lon="4.52538">
        <ele>624</ele>
        <time>2022-08-31T23:32:43Z</time>
      </trkpt>
      <trkpt lat="46.17553" lon="4.52512">
        <ele>624</ele>
        <time>2022-08-31T23:32:46Z</time>
      </trkpt>
      <trkpt lat="46.17557" lon="4.52484">
        <ele>623</ele>
        <time>2022-08-31T23:32:50Z</time>
      </trkpt>
      <trkpt lat="46.17575" lon="4.52436">
        <ele>621</ele>
        <time>2022-08-31T23:32:56Z</time>
      </trkpt>
      <trkpt lat="46.17615" lon="4.52365">
        <ele>614</ele>
        <time>2022-08-31T23:33:08Z</time>
      </trkpt>
      <trkpt lat="46.17641" lon="4.52325">
        <ele>611</ele>
        <time>2022-08-31T23:33:14Z</time>
      </trkpt>
      <trkpt lat="46.17666" lon="4.52291">
        <ele>606</ele>
        <time>2022-08-31T23:33:21Z</time>
      </trkpt>
      <trkpt lat="46.17688" lon="4.52269">
        <ele>602</ele>
        <time>2022-08-31T23:33:25Z</time>
      </trkpt>
      <trkpt lat="46.17717" lon="4.52247">
        <ele>599</ele>
        <time>2022-08-31T23:33:31Z</time>
      </trkpt>
      <trkpt lat="46.17744" lon="4.52217">
        <ele>596</ele>
        <time>2022-08-31T23:33:37Z</time>
      </trkpt>
      <trkpt lat="46.178" lon="4.52129">
        <ele>592</ele>
        <time>2022-08-31T23:33:52Z</time>
      </trkpt>
      <trkpt lat="46.17919" lon="4.51908">
        <ele>580</ele>
        <time>2022-08-31T23:34:26Z</time>
      </trkpt>
      <trkpt lat="46.17928" lon="4.51895">
        <ele>580</ele>
        <time>2022-08-31T23:34:29Z</time>
      </trkpt>
      <trkpt lat="46.17933" lon="4.5189">
        <ele>579</ele>
        <time>2022-08-31T23:34:30Z</time>
      </trkpt>
      <trkpt lat="46.17934" lon="4.51895">
        <ele>579</ele>
        <time>2022-08-31T23:34:30Z</time>
      </trkpt>
      <trkpt lat="46.1794" lon="4.51917">
        <ele>579</ele>
        <time>2022-08-31T23:34:33Z</time>
      </trkpt>
      <trkpt lat="46.17944" lon="4.51943">
        <ele>578</ele>
        <time>2022-08-31T23:34:37Z</time>
      </trkpt>
      <trkpt lat="46.17945" lon="4.51965">
        <ele>576</ele>
        <time>2022-08-31T23:34:39Z</time>
      </trkpt>
      <trkpt lat="46.17941" lon="4.5201">
        <ele>573</ele>
        <time>2022-08-31T23:34:45Z</time>
      </trkpt>
      <trkpt lat="46.17928" lon="4.52072">
        <ele>569</ele>
        <time>2022-08-31T23:34:53Z</time>
      </trkpt>
      <trkpt lat="46.17886" lon="4.52242">
        <ele>563</ele>
        <time>2022-08-31T23:35:15Z</time>
      </trkpt>
      <trkpt lat="46.17867" lon="4.52328">
        <ele>558</ele>
        <time>2022-08-31T23:35:26Z</time>
      </trkpt>
      <trkpt lat="46.17864" lon="4.52349">
        <ele>557</ele>
        <time>2022-08-31T23:35:29Z</time>
      </trkpt>
      <trkpt lat="46.17865" lon="4.5237">
        <ele>556</ele>
        <time>2022-08-31T23:35:32Z</time>
      </trkpt>
      <trkpt lat="46.17867" lon="4.52395">
        <ele>554</ele>
        <time>2022-08-31T23:35:35Z</time>
      </trkpt>
      <trkpt lat="46.17873" lon="4.52422">
        <ele>552</ele>
        <time>2022-08-31T23:35:38Z</time>
      </trkpt>
      <trkpt lat="46.18003" lon="4.5286">
        <ele>530</ele>
        <time>2022-08-31T23:36:37Z</time>
      </trkpt>
      <trkpt lat="46.18011" lon="4.52898">
        <ele>529</ele>
        <time>2022-08-31T23:36:42Z</time>
      </trkpt>
      <trkpt lat="46.18016" lon="4.5293">
        <ele>528</ele>
        <time>2022-08-31T23:36:46Z</time>
      </trkpt>
      <trkpt lat="46.18015" lon="4.52959">
        <ele>527</ele>
        <time>2022-08-31T23:36:49Z</time>
      </trkpt>
      <trkpt lat="46.18012" lon="4.52987">
        <ele>525</ele>
        <time>2022-08-31T23:36:53Z</time>
      </trkpt>
      <trkpt lat="46.18006" lon="4.53019">
        <ele>523</ele>
        <time>2022-08-31T23:36:57Z</time>
      </trkpt>
      <trkpt lat="46.17998" lon="4.53042">
        <ele>521</ele>
        <time>2022-08-31T23:37:00Z</time>
      </trkpt>
      <trkpt lat="46.1799" lon="4.53061">
        <ele>519</ele>
        <time>2022-08-31T23:37:03Z</time>
      </trkpt>
      <trkpt lat="46.17937" lon="4.53144">
        <ele>513</ele>
        <time>2022-08-31T23:37:17Z</time>
      </trkpt>
      <trkpt lat="46.1792" lon="4.53183">
        <ele>510</ele>
        <time>2022-08-31T23:37:22Z</time>
      </trkpt>
      <trkpt lat="46.17909" lon="4.5323">
        <ele>508</ele>
        <time>2022-08-31T23:37:29Z</time>
      </trkpt>
      <trkpt lat="46.17907" lon="4.53273">
        <ele>507</ele>
        <time>2022-08-31T23:37:34Z</time>
      </trkpt>
      <trkpt lat="46.1791" lon="4.53309">
        <ele>506</ele>
        <time>2022-08-31T23:37:38Z</time>
      </trkpt>
      <trkpt lat="46.1792" lon="4.53348">
        <ele>504</ele>
        <time>2022-08-31T23:37:43Z</time>
      </trkpt>
      <trkpt lat="46.17965" lon="4.53447">
        <ele>498</ele>
        <time>2022-08-31T23:37:58Z</time>
      </trkpt>
      <trkpt lat="46.17978" lon="4.53487">
        <ele>499</ele>
        <time>2022-08-31T23:38:03Z</time>
      </trkpt>
      <trkpt lat="46.17986" lon="4.5352">
        <ele>499</ele>
        <time>2022-08-31T23:38:08Z</time>
      </trkpt>
      <trkpt lat="46.17993" lon="4.53572">
        <ele>498</ele>
        <time>2022-08-31T23:38:14Z</time>
      </trkpt>
      <trkpt lat="46.17994" lon="4.53607">
        <ele>495</ele>
        <time>2022-08-31T23:38:19Z</time>
      </trkpt>
      <trkpt lat="46.17991" lon="4.53651">
        <ele>492</ele>
        <time>2022-08-31T23:38:24Z</time>
      </trkpt>
      <trkpt lat="46.17987" lon="4.53684">
        <ele>489</ele>
        <time>2022-08-31T23:38:28Z</time>
      </trkpt>
      <trkpt lat="46.17981" lon="4.53715">
        <ele>486</ele>
        <time>2022-08-31T23:38:32Z</time>
      </trkpt>
      <trkpt lat="46.17969" lon="4.53754">
        <ele>483</ele>
        <time>2022-08-31T23:38:37Z</time>
      </trkpt>
      <trkpt lat="46.17959" lon="4.53782">
        <ele>480</ele>
        <time>2022-08-31T23:38:41Z</time>
      </trkpt>
      <trkpt lat="46.17945" lon="4.53811">
        <ele>478</ele>
        <time>2022-08-31T23:38:46Z</time>
      </trkpt>
      <trkpt lat="46.17911" lon="4.53859">
        <ele>476</ele>
        <time>2022-08-31T23:38:54Z</time>
      </trkpt>
      <trkpt lat="46.17835" lon="4.53954">
        <ele>474</ele>
        <time>2022-08-31T23:39:12Z</time>
      </trkpt>
      <trkpt lat="46.17838" lon="4.53959">
        <ele>473</ele>
        <time>2022-08-31T23:39:13Z</time>
      </trkpt>
      <trkpt lat="46.17845" lon="4.53961">
        <ele>473</ele>
        <time>2022-08-31T23:39:14Z</time>
      </trkpt>
      <trkpt lat="46.17933" lon="4.53933">
        <ele>467</ele>
        <time>2022-08-31T23:39:30Z</time>
      </trkpt>
      <trkpt lat="46.17966" lon="4.53918">
        <ele>464</ele>
        <time>2022-08-31T23:39:36Z</time>
      </trkpt>
      <trkpt lat="46.1803" lon="4.53883">
        <ele>460</ele>
        <time>2022-08-31T23:39:48Z</time>
      </trkpt>
      <trkpt lat="46.18039" lon="4.53886">
        <ele>458</ele>
        <time>2022-08-31T23:39:50Z</time>
      </trkpt>
      <trkpt lat="46.17959" lon="4.54105">
        <ele>447</ele>
        <time>2022-08-31T23:40:21Z</time>
      </trkpt>
      <trkpt lat="46.17958" lon="4.5413">
        <ele>445</ele>
        <time>2022-08-31T23:40:24Z</time>
      </trkpt>
      <trkpt lat="46.1796" lon="4.5418">
        <ele>441</ele>
        <time>2022-08-31T23:40:30Z</time>
      </trkpt>
      <trkpt lat="46.17973" lon="4.5418">
        <ele>441</ele>
        <time>2022-08-31T23:40:32Z</time>
      </trkpt>
      <trkpt lat="46.18005" lon="4.54165">
        <ele>443</ele>
        <time>2022-08-31T23:40:38Z</time>
      </trkpt>
      <trkpt lat="46.18035" lon="4.54145">
        <ele>441</ele>
        <time>2022-08-31T23:40:44Z</time>
      </trkpt>
      <trkpt lat="46.18049" lon="4.54121">
        <ele>441</ele>
        <time>2022-08-31T23:40:48Z</time>
      </trkpt>
      <trkpt lat="46.18056" lon="4.54114">
        <ele>441</ele>
        <time>2022-08-31T23:40:49Z</time>
      </trkpt>
      <trkpt lat="46.18066" lon="4.54111">
        <ele>441</ele>
        <time>2022-08-31T23:40:51Z</time>
      </trkpt>
      <trkpt lat="46.18073" lon="4.54116">
        <ele>440</ele>
        <time>2022-08-31T23:40:53Z</time>
      </trkpt>
      <trkpt lat="46.18079" lon="4.54126">
        <ele>439</ele>
        <time>2022-08-31T23:40:54Z</time>
      </trkpt>
      <trkpt lat="46.18086" lon="4.54153">
        <ele>437</ele>
        <time>2022-08-31T23:40:58Z</time>
      </trkpt>
      <trkpt lat="46.1809" lon="4.5419">
        <ele>435</ele>
        <time>2022-08-31T23:41:02Z</time>
      </trkpt>
      <trkpt lat="46.18094" lon="4.54207">
        <ele>434</ele>
        <time>2022-08-31T23:41:05Z</time>
      </trkpt>
      <trkpt lat="46.18105" lon="4.54236">
        <ele>433</ele>
        <time>2022-08-31T23:41:09Z</time>
      </trkpt>
      <trkpt lat="46.18129" lon="4.54266">
        <ele>434</ele>
        <time>2022-08-31T23:41:14Z</time>
      </trkpt>
      <trkpt lat="46.18144" lon="4.54281">
        <ele>434</ele>
        <time>2022-08-31T23:41:18Z</time>
      </trkpt>
      <trkpt lat="46.18193" lon="4.54326">
        <ele>435</ele>
        <time>2022-08-31T23:41:28Z</time>
      </trkpt>
      <trkpt lat="46.18229" lon="4.54352">
        <ele>436</ele>
        <time>2022-08-31T23:41:35Z</time>
      </trkpt>
      <trkpt lat="46.18262" lon="4.54365">
        <ele>438</ele>
        <time>2022-08-31T23:41:41Z</time>
      </trkpt>
      <trkpt lat="46.18275" lon="4.5438">
        <ele>438</ele>
        <time>2022-08-31T23:41:44Z</time>
      </trkpt>
      <trkpt lat="46.18313" lon="4.54436">
        <ele>435</ele>
        <time>2022-08-31T23:41:54Z</time>
      </trkpt>
      <trkpt lat="46.18338" lon="4.54489">
        <ele>431</ele>
        <time>2022-08-31T23:42:02Z</time>
      </trkpt>
      <trkpt lat="46.18362" lon="4.54526">
        <ele>426</ele>
        <time>2022-08-31T23:42:08Z</time>
      </trkpt>
      <trkpt lat="46.18385" lon="4.5455">
        <ele>422</ele>
        <time>2022-08-31T23:42:13Z</time>
      </trkpt>
      <trkpt lat="46.18418" lon="4.54579">
        <ele>417</ele>
        <time>2022-08-31T23:42:20Z</time>
      </trkpt>
      <trkpt lat="46.18436" lon="4.54585">
        <ele>414</ele>
        <time>2022-08-31T23:42:23Z</time>
      </trkpt>
      <trkpt lat="46.18476" lon="4.54587">
        <ele>409</ele>
        <time>2022-08-31T23:42:30Z</time>
      </trkpt>
      <trkpt lat="46.185" lon="4.54582">
        <ele>407</ele>
        <time>2022-08-31T23:42:35Z</time>
      </trkpt>
      <trkpt lat="46.18525" lon="4.54563">
        <ele>408</ele>
        <time>2022-08-31T23:42:40Z</time>
      </trkpt>
      <trkpt lat="46.18538" lon="4.54559">
        <ele>408</ele>
        <time>2022-08-31T23:42:42Z</time>
      </trkpt>
      <trkpt lat="46.18556" lon="4.54565">
        <ele>406</ele>
        <time>2022-08-31T23:42:45Z</time>
      </trkpt>
      <trkpt lat="46.18559" lon="4.54567">
        <ele>406</ele>
        <time>2022-08-31T23:42:46Z</time>
      </trkpt>
      <trkpt lat="46.18592" lon="4.54596">
        <ele>406</ele>
        <time>2022-08-31T23:42:53Z</time>
      </trkpt>
      <trkpt lat="46.18622" lon="4.54619">
        <ele>411</ele>
        <time>2022-08-31T23:42:59Z</time>
      </trkpt>
      <trkpt lat="46.18654" lon="4.54641">
        <ele>415</ele>
        <time>2022-08-31T23:43:05Z</time>
      </trkpt>
      <trkpt lat="46.18676" lon="4.54653">
        <ele>417</ele>
        <time>2022-08-31T23:43:09Z</time>
      </trkpt>
      <trkpt lat="46.18693" lon="4.54656">
        <ele>418</ele>
        <time>2022-08-31T23:43:12Z</time>
      </trkpt>
      <trkpt lat="46.18709" lon="4.54646">
        <ele>420</ele>
        <time>2022-08-31T23:43:15Z</time>
      </trkpt>
      <trkpt lat="46.18768" lon="4.54686">
        <ele>419</ele>
        <time>2022-08-31T23:43:27Z</time>
      </trkpt>
      <trkpt lat="46.18812" lon="4.54698">
        <ele>417</ele>
        <time>2022-08-31T23:43:35Z</time>
      </trkpt>
      <trkpt lat="46.1883" lon="4.54704">
        <ele>416</ele>
        <time>2022-08-31T23:43:38Z</time>
      </trkpt>
      <trkpt lat="46.18839" lon="4.54711">
        <ele>416</ele>
        <time>2022-08-31T23:43:40Z</time>
      </trkpt>
      <trkpt lat="46.18845" lon="4.54723">
        <ele>416</ele>
        <time>2022-08-31T23:43:42Z</time>
      </trkpt>
      <trkpt lat="46.18856" lon="4.54762">
        <ele>419</ele>
        <time>2022-08-31T23:43:47Z</time>
      </trkpt>
      <trkpt lat="46.18855" lon="4.54772">
        <ele>420</ele>
        <time>2022-08-31T23:43:48Z</time>
      </trkpt>
      <trkpt lat="46.1885" lon="4.54783">
        <ele>420</ele>
        <time>2022-08-31T23:43:50Z</time>
      </trkpt>
      <trkpt lat="46.18826" lon="4.5484">
        <ele>421</ele>
        <time>2022-08-31T23:43:58Z</time>
      </trkpt>
      <trkpt lat="46.18826" lon="4.5485">
        <ele>423</ele>
        <time>2022-08-31T23:43:59Z</time>
      </trkpt>
      <trkpt lat="46.18914" lon="4.54739">
        <ele>427</ele>
        <time>2022-08-31T23:44:20Z</time>
      </trkpt>
      <trkpt lat="46.18923" lon="4.54731">
        <ele>427</ele>
        <time>2022-08-31T23:44:22Z</time>
      </trkpt>
      <trkpt lat="46.18936" lon="4.54723">
        <ele>428</ele>
        <time>2022-08-31T23:44:25Z</time>
      </trkpt>
      <trkpt lat="46.18946" lon="4.5472">
        <ele>429</ele>
        <time>2022-08-31T23:44:26Z</time>
      </trkpt>
      <trkpt lat="46.18956" lon="4.5472">
        <ele>430</ele>
        <time>2022-08-31T23:44:28Z</time>
      </trkpt>
      <trkpt lat="46.18967" lon="4.54724">
        <ele>431</ele>
        <time>2022-08-31T23:44:30Z</time>
      </trkpt>
      <trkpt lat="46.18977" lon="4.5473">
        <ele>432</ele>
        <time>2022-08-31T23:44:32Z</time>
      </trkpt>
      <trkpt lat="46.18991" lon="4.54748">
        <ele>432</ele>
        <time>2022-08-31T23:44:35Z</time>
      </trkpt>
      <trkpt lat="46.19007" lon="4.54784">
        <ele>437</ele>
        <time>2022-08-31T23:44:41Z</time>
      </trkpt>
      <trkpt lat="46.19031" lon="4.5483">
        <ele>441</ele>
        <time>2022-08-31T23:44:48Z</time>
      </trkpt>
      <trkpt lat="46.19046" lon="4.54848">
        <ele>443</ele>
        <time>2022-08-31T23:44:51Z</time>
      </trkpt>
      <trkpt lat="46.19097" lon="4.54899">
        <ele>450</ele>
        <time>2022-08-31T23:45:02Z</time>
      </trkpt>
      <trkpt lat="46.1911" lon="4.54909">
        <ele>451</ele>
        <time>2022-08-31T23:45:05Z</time>
      </trkpt>
      <trkpt lat="46.19122" lon="4.54914">
        <ele>451</ele>
        <time>2022-08-31T23:45:07Z</time>
      </trkpt>
      <trkpt lat="46.19134" lon="4.54915">
        <ele>451</ele>
        <time>2022-08-31T23:45:09Z</time>
      </trkpt>
      <trkpt lat="46.19177" lon="4.54912">
        <ele>450</ele>
        <time>2022-08-31T23:45:17Z</time>
      </trkpt>
      <trkpt lat="46.1919" lon="4.54909">
        <ele>452</ele>
        <time>2022-08-31T23:45:19Z</time>
      </trkpt>
      <trkpt lat="46.192" lon="4.54902">
        <ele>453</ele>
        <time>2022-08-31T23:45:21Z</time>
      </trkpt>
      <trkpt lat="46.19204" lon="4.54896">
        <ele>453</ele>
        <time>2022-08-31T23:45:22Z</time>
      </trkpt>
      <trkpt lat="46.19208" lon="4.54883">
        <ele>454</ele>
        <time>2022-08-31T23:45:24Z</time>
      </trkpt>
      <trkpt lat="46.19209" lon="4.54871">
        <ele>454</ele>
        <time>2022-08-31T23:45:26Z</time>
      </trkpt>
      <trkpt lat="46.19208" lon="4.54853">
        <ele>454</ele>
        <time>2022-08-31T23:45:28Z</time>
      </trkpt>
      <trkpt lat="46.19201" lon="4.54834">
        <ele>453</ele>
        <time>2022-08-31T23:45:30Z</time>
      </trkpt>
      <trkpt lat="46.19191" lon="4.54821">
        <ele>452</ele>
        <time>2022-08-31T23:45:33Z</time>
      </trkpt>
      <trkpt lat="46.1918" lon="4.54799">
        <ele>452</ele>
        <time>2022-08-31T23:45:36Z</time>
      </trkpt>
      <trkpt lat="46.19173" lon="4.54778">
        <ele>452</ele>
        <time>2022-08-31T23:45:39Z</time>
      </trkpt>
      <trkpt lat="46.19164" lon="4.54719">
        <ele>456</ele>
        <time>2022-08-31T23:45:46Z</time>
      </trkpt>
      <trkpt lat="46.19156" lon="4.54701">
        <ele>457</ele>
        <time>2022-08-31T23:45:49Z</time>
      </trkpt>
      <trkpt lat="46.19148" lon="4.54686">
        <ele>458</ele>
        <time>2022-08-31T23:45:51Z</time>
      </trkpt>
      <trkpt lat="46.19127" lon="4.54667">
        <ele>459</ele>
        <time>2022-08-31T23:45:56Z</time>
      </trkpt>
      <trkpt lat="46.19063" lon="4.5463">
        <ele>461</ele>
        <time>2022-08-31T23:46:08Z</time>
      </trkpt>
      <trkpt lat="46.19052" lon="4.5462">
        <ele>461</ele>
        <time>2022-08-31T23:46:10Z</time>
      </trkpt>
      <trkpt lat="46.19034" lon="4.54596">
        <ele>461</ele>
        <time>2022-08-31T23:46:15Z</time>
      </trkpt>
      <trkpt lat="46.19027" lon="4.54581">
        <ele>461</ele>
        <time>2022-08-31T23:46:17Z</time>
      </trkpt>
      <trkpt lat="46.19021" lon="4.54558">
        <ele>461</ele>
        <time>2022-08-31T23:46:20Z</time>
      </trkpt>
      <trkpt lat="46.19019" lon="4.54536">
        <ele>462</ele>
        <time>2022-08-31T23:46:23Z</time>
      </trkpt>
      <trkpt lat="46.19019" lon="4.54508">
        <ele>464</ele>
        <time>2022-08-31T23:46:26Z</time>
      </trkpt>
      <trkpt lat="46.19023" lon="4.5449">
        <ele>465</ele>
        <time>2022-08-31T23:46:29Z</time>
      </trkpt>
      <trkpt lat="46.19029" lon="4.54468">
        <ele>464</ele>
        <time>2022-08-31T23:46:31Z</time>
      </trkpt>
      <trkpt lat="46.19038" lon="4.54449">
        <ele>465</ele>
        <time>2022-08-31T23:46:34Z</time>
      </trkpt>
      <trkpt lat="46.19118" lon="4.54357">
        <ele>476</ele>
        <time>2022-08-31T23:46:52Z</time>
      </trkpt>
      <trkpt lat="46.1913" lon="4.54332">
        <ele>478</ele>
        <time>2022-08-31T23:46:56Z</time>
      </trkpt>
      <trkpt lat="46.19134" lon="4.54322">
        <ele>479</ele>
        <time>2022-08-31T23:46:58Z</time>
      </trkpt>
      <trkpt lat="46.19149" lon="4.54261">
        <ele>479</ele>
        <time>2022-08-31T23:47:06Z</time>
      </trkpt>
      <trkpt lat="46.19156" lon="4.54242">
        <ele>479</ele>
        <time>2022-08-31T23:47:08Z</time>
      </trkpt>
      <trkpt lat="46.19164" lon="4.54229">
        <ele>480</ele>
        <time>2022-08-31T23:47:10Z</time>
      </trkpt>
      <trkpt lat="46.19176" lon="4.54217">
        <ele>479</ele>
        <time>2022-08-31T23:47:13Z</time>
      </trkpt>
      <trkpt lat="46.19191" lon="4.54209">
        <ele>479</ele>
        <time>2022-08-31T23:47:16Z</time>
      </trkpt>
      <trkpt lat="46.19212" lon="4.54204">
        <ele>479</ele>
        <time>2022-08-31T23:47:20Z</time>
      </trkpt>
      <trkpt lat="46.19227" lon="4.54205">
        <ele>480</ele>
        <time>2022-08-31T23:47:22Z</time>
      </trkpt>
      <trkpt lat="46.19248" lon="4.54212">
        <ele>483</ele>
        <time>2022-08-31T23:47:26Z</time>
      </trkpt>
      <trkpt lat="46.19273" lon="4.54227">
        <ele>485</ele>
        <time>2022-08-31T23:47:31Z</time>
      </trkpt>
      <trkpt lat="46.19304" lon="4.54254">
        <ele>488</ele>
        <time>2022-08-31T23:47:37Z</time>
      </trkpt>
      <trkpt lat="46.19335" lon="4.54279">
        <ele>489</ele>
        <time>2022-08-31T23:47:44Z</time>
      </trkpt>
      <trkpt lat="46.1935" lon="4.54289">
        <ele>491</ele>
        <time>2022-08-31T23:47:47Z</time>
      </trkpt>
      <trkpt lat="46.19381" lon="4.54297">
        <ele>491</ele>
        <time>2022-08-31T23:47:52Z</time>
      </trkpt>
      <trkpt lat="46.19398" lon="4.54296">
        <ele>491</ele>
        <time>2022-08-31T23:47:55Z</time>
      </trkpt>
      <trkpt lat="46.19417" lon="4.54288">
        <ele>489</ele>
        <time>2022-08-31T23:47:59Z</time>
      </trkpt>
      <trkpt lat="46.19458" lon="4.54261">
        <ele>488</ele>
        <time>2022-08-31T23:48:07Z</time>
      </trkpt>
      <trkpt lat="46.19472" lon="4.54256">
        <ele>489</ele>
        <time>2022-08-31T23:48:09Z</time>
      </trkpt>
      <trkpt lat="46.19489" lon="4.54257">
        <ele>491</ele>
        <time>2022-08-31T23:48:12Z</time>
      </trkpt>
      <trkpt lat="46.19507" lon="4.54263">
        <ele>494</ele>
        <time>2022-08-31T23:48:16Z</time>
      </trkpt>
      <trkpt lat="46.19561" lon="4.54286">
        <ele>500</ele>
        <time>2022-08-31T23:48:26Z</time>
      </trkpt>
      <trkpt lat="46.19574" lon="4.54289">
        <ele>501</ele>
        <time>2022-08-31T23:48:28Z</time>
      </trkpt>
      <trkpt lat="46.19653" lon="4.54291">
        <ele>504</ele>
        <time>2022-08-31T23:48:42Z</time>
      </trkpt>
      <trkpt lat="46.19675" lon="4.54296">
        <ele>505</ele>
        <time>2022-08-31T23:48:46Z</time>
      </trkpt>
      <trkpt lat="46.19697" lon="4.54307">
        <ele>507</ele>
        <time>2022-08-31T23:48:50Z</time>
      </trkpt>
      <trkpt lat="46.1983" lon="4.54409">
        <ele>516</ele>
        <time>2022-08-31T23:49:17Z</time>
      </trkpt>
      <trkpt lat="46.19845" lon="4.54416">
        <ele>517</ele>
        <time>2022-08-31T23:49:20Z</time>
      </trkpt>
      <trkpt lat="46.19878" lon="4.54424">
        <ele>520</ele>
        <time>2022-08-31T23:49:26Z</time>
      </trkpt>
      <trkpt lat="46.19896" lon="4.54424">
        <ele>520</ele>
        <time>2022-08-31T23:49:29Z</time>
      </trkpt>
      <trkpt lat="46.19922" lon="4.5442">
        <ele>521</ele>
        <time>2022-08-31T23:49:34Z</time>
      </trkpt>
      <trkpt lat="46.20035" lon="4.54392">
        <ele>530</ele>
        <time>2022-08-31T23:49:54Z</time>
      </trkpt>
      <trkpt lat="46.20126" lon="4.54359">
        <ele>529</ele>
        <time>2022-08-31T23:50:11Z</time>
      </trkpt>
      <trkpt lat="46.20139" lon="4.54356">
        <ele>529</ele>
        <time>2022-08-31T23:50:13Z</time>
      </trkpt>
      <trkpt lat="46.20148" lon="4.54357">
        <ele>529</ele>
        <time>2022-08-31T23:50:15Z</time>
      </trkpt>
      <trkpt lat="46.20159" lon="4.54362">
        <ele>529</ele>
        <time>2022-08-31T23:50:17Z</time>
      </trkpt>
      <trkpt lat="46.20167" lon="4.54371">
        <ele>529</ele>
        <time>2022-08-31T23:50:19Z</time>
      </trkpt>
      <trkpt lat="46.20173" lon="4.54384">
        <ele>530</ele>
        <time>2022-08-31T23:50:20Z</time>
      </trkpt>
      <trkpt lat="46.20175" lon="4.54399">
        <ele>531</ele>
        <time>2022-08-31T23:50:22Z</time>
      </trkpt>
      <trkpt lat="46.20173" lon="4.54414">
        <ele>531</ele>
        <time>2022-08-31T23:50:24Z</time>
      </trkpt>
      <trkpt lat="46.2017" lon="4.54427">
        <ele>532</ele>
        <time>2022-08-31T23:50:26Z</time>
      </trkpt>
      <trkpt lat="46.20163" lon="4.54438">
        <ele>533</ele>
        <time>2022-08-31T23:50:28Z</time>
      </trkpt>
      <trkpt lat="46.20152" lon="4.54446">
        <ele>535</ele>
        <time>2022-08-31T23:50:30Z</time>
      </trkpt>
      <trkpt lat="46.20141" lon="4.54448">
        <ele>536</ele>
        <time>2022-08-31T23:50:32Z</time>
      </trkpt>
      <trkpt lat="46.20077" lon="4.54445">
        <ele>538</ele>
        <time>2022-08-31T23:50:43Z</time>
      </trkpt>
      <trkpt lat="46.20059" lon="4.54447">
        <ele>538</ele>
        <time>2022-08-31T23:50:47Z</time>
      </trkpt>
      <trkpt lat="46.20043" lon="4.54453">
        <ele>538</ele>
        <time>2022-08-31T23:50:49Z</time>
      </trkpt>
      <trkpt lat="46.2003" lon="4.5446">
        <ele>539</ele>
        <time>2022-08-31T23:50:52Z</time>
      </trkpt>
      <trkpt lat="46.20016" lon="4.54472">
        <ele>540</ele>
        <time>2022-08-31T23:50:55Z</time>
      </trkpt>
      <trkpt lat="46.1995" lon="4.5454">
        <ele>546</ele>
        <time>2022-08-31T23:51:09Z</time>
      </trkpt>
      <trkpt lat="46.19934" lon="4.54555">
        <ele>547</ele>
        <time>2022-08-31T23:51:13Z</time>
      </trkpt>
      <trkpt lat="46.19917" lon="4.54564">
        <ele>546</ele>
        <time>2022-08-31T23:51:16Z</time>
      </trkpt>
      <trkpt lat="46.19906" lon="4.54568">
        <ele>547</ele>
        <time>2022-08-31T23:51:18Z</time>
      </trkpt>
      <trkpt lat="46.1985" lon="4.54576">
        <ele>549</ele>
        <time>2022-08-31T23:51:28Z</time>
      </trkpt>
      <trkpt lat="46.19829" lon="4.54576">
        <ele>549</ele>
        <time>2022-08-31T23:51:32Z</time>
      </trkpt>
      <trkpt lat="46.19778" lon="4.54569">
        <ele>550</ele>
        <time>2022-08-31T23:51:41Z</time>
      </trkpt>
      <trkpt lat="46.19768" lon="4.54569">
        <ele>551</ele>
        <time>2022-08-31T23:51:43Z</time>
      </trkpt>
      <trkpt lat="46.1976" lon="4.54572">
        <ele>551</ele>
        <time>2022-08-31T23:51:44Z</time>
      </trkpt>
      <trkpt lat="46.19753" lon="4.54578">
        <ele>552</ele>
        <time>2022-08-31T23:51:45Z</time>
      </trkpt>
      <trkpt lat="46.19745" lon="4.54595">
        <ele>553</ele>
        <time>2022-08-31T23:51:48Z</time>
      </trkpt>
      <trkpt lat="46.19744" lon="4.54606">
        <ele>553</ele>
        <time>2022-08-31T23:51:49Z</time>
      </trkpt>
      <trkpt lat="46.19748" lon="4.54628">
        <ele>553</ele>
        <time>2022-08-31T23:51:52Z</time>
      </trkpt>
      <trkpt lat="46.19753" lon="4.54638">
        <ele>554</ele>
        <time>2022-08-31T23:51:54Z</time>
      </trkpt>
      <trkpt lat="46.1976" lon="4.54644">
        <ele>554</ele>
        <time>2022-08-31T23:51:55Z</time>
      </trkpt>
      <trkpt lat="46.19772" lon="4.54648">
        <ele>554</ele>
        <time>2022-08-31T23:51:57Z</time>
      </trkpt>
      <trkpt lat="46.19835" lon="4.54636">
        <ele>555</ele>
        <time>2022-08-31T23:52:09Z</time>
      </trkpt>
      <trkpt lat="46.19856" lon="4.54635">
        <ele>556</ele>
        <time>2022-08-31T23:52:12Z</time>
      </trkpt>
      <trkpt lat="46.19935" lon="4.54642">
        <ele>561</ele>
        <time>2022-08-31T23:52:26Z</time>
      </trkpt>
      <trkpt lat="46.19947" lon="4.54641">
        <ele>562</ele>
        <time>2022-08-31T23:52:29Z</time>
      </trkpt>
      <trkpt lat="46.19971" lon="4.54633">
        <ele>564</ele>
        <time>2022-08-31T23:52:33Z</time>
      </trkpt>
      <trkpt lat="46.20028" lon="4.54589">
        <ele>564</ele>
        <time>2022-08-31T23:52:44Z</time>
      </trkpt>
      <trkpt lat="46.20042" lon="4.5458">
        <ele>564</ele>
        <time>2022-08-31T23:52:47Z</time>
      </trkpt>
      <trkpt lat="46.20074" lon="4.54572">
        <ele>566</ele>
        <time>2022-08-31T23:52:53Z</time>
      </trkpt>
      <trkpt lat="46.20114" lon="4.54576">
        <ele>564</ele>
        <time>2022-08-31T23:53:00Z</time>
      </trkpt>
      <trkpt lat="46.20129" lon="4.54584">
        <ele>564</ele>
        <time>2022-08-31T23:53:03Z</time>
      </trkpt>
      <trkpt lat="46.20142" lon="4.54594">
        <ele>565</ele>
        <time>2022-08-31T23:53:06Z</time>
      </trkpt>
      <trkpt lat="46.2016" lon="4.54618">
        <ele>567</ele>
        <time>2022-08-31T23:53:10Z</time>
      </trkpt>
      <trkpt lat="46.20182" lon="4.54661">
        <ele>573</ele>
        <time>2022-08-31T23:53:17Z</time>
      </trkpt>
      <trkpt lat="46.20204" lon="4.54689">
        <ele>574</ele>
        <time>2022-08-31T23:53:22Z</time>
      </trkpt>
      <trkpt lat="46.20237" lon="4.5472">
        <ele>574</ele>
        <time>2022-08-31T23:53:29Z</time>
      </trkpt>
      <trkpt lat="46.2027" lon="4.54747">
        <ele>576</ele>
        <time>2022-08-31T23:53:35Z</time>
      </trkpt>
      <trkpt lat="46.20301" lon="4.54769">
        <ele>577</ele>
        <time>2022-08-31T23:53:42Z</time>
      </trkpt>
      <trkpt lat="46.20373" lon="4.54804">
        <ele>582</ele>
        <time>2022-08-31T23:53:55Z</time>
      </trkpt>
      <trkpt lat="46.20415" lon="4.54835">
        <ele>586</ele>
        <time>2022-08-31T23:54:04Z</time>
      </trkpt>
      <trkpt lat="46.20445" lon="4.54851">
        <ele>590</ele>
        <time>2022-08-31T23:54:09Z</time>
      </trkpt>
      <trkpt lat="46.20465" lon="4.54852">
        <ele>591</ele>
        <time>2022-08-31T23:54:13Z</time>
      </trkpt>
      <trkpt lat="46.20475" lon="4.54847">
        <ele>591</ele>
        <time>2022-08-31T23:54:15Z</time>
      </trkpt>
      <trkpt lat="46.20486" lon="4.54834">
        <ele>591</ele>
        <time>2022-08-31T23:54:17Z</time>
      </trkpt>
      <trkpt lat="46.20493" lon="4.54814">
        <ele>591</ele>
        <time>2022-08-31T23:54:20Z</time>
      </trkpt>
      <trkpt lat="46.2051" lon="4.54716">
        <ele>591</ele>
        <time>2022-08-31T23:54:32Z</time>
      </trkpt>
      <trkpt lat="46.20526" lon="4.54638">
        <ele>593</ele>
        <time>2022-08-31T23:54:42Z</time>
      </trkpt>
      <trkpt lat="46.20539" lon="4.54596">
        <ele>596</ele>
        <time>2022-08-31T23:54:48Z</time>
      </trkpt>
      <trkpt lat="46.20604" lon="4.54437">
        <ele>602</ele>
        <time>2022-08-31T23:55:11Z</time>
      </trkpt>
      <trkpt lat="46.20611" lon="4.54415">
        <ele>603</ele>
        <time>2022-08-31T23:55:14Z</time>
      </trkpt>
      <trkpt lat="46.20615" lon="4.54391">
        <ele>604</ele>
        <time>2022-08-31T23:55:17Z</time>
      </trkpt>
      <trkpt lat="46.20625" lon="4.54303">
        <ele>605</ele>
        <time>2022-08-31T23:55:28Z</time>
      </trkpt>
      <trkpt lat="46.20641" lon="4.54227">
        <ele>609</ele>
        <time>2022-08-31T23:55:38Z</time>
      </trkpt>
      <trkpt lat="46.20655" lon="4.54156">
        <ele>612</ele>
        <time>2022-08-31T23:55:47Z</time>
      </trkpt>
      <trkpt lat="46.20672" lon="4.53988">
        <ele>614</ele>
        <time>2022-08-31T23:56:08Z</time>
      </trkpt>
      <trkpt lat="46.20672" lon="4.53931">
        <ele>615</ele>
        <time>2022-08-31T23:56:15Z</time>
      </trkpt>
      <trkpt lat="46.20667" lon="4.53735">
        <ele>624</ele>
        <time>2022-08-31T23:56:39Z</time>
      </trkpt>
      <trkpt lat="46.20673" lon="4.53734">
        <ele>624</ele>
        <time>2022-08-31T23:56:40Z</time>
      </trkpt>
      <trkpt lat="46.20678" lon="4.5373">
        <ele>624</ele>
        <time>2022-08-31T23:56:41Z</time>
      </trkpt>
      <trkpt lat="46.20682" lon="4.53723">
        <ele>624</ele>
        <time>2022-08-31T23:56:42Z</time>
      </trkpt>
      <trkpt lat="46.20682" lon="4.53715">
        <ele>625</ele>
        <time>2022-08-31T23:56:43Z</time>
      </trkpt>
      <trkpt lat="46.20683" lon="4.53709">
        <ele>625</ele>
        <time>2022-08-31T23:56:44Z</time>
      </trkpt>
      <trkpt lat="46.2068" lon="4.537">
        <ele>625</ele>
        <time>2022-08-31T23:56:45Z</time>
      </trkpt>
      <trkpt lat="46.20676" lon="4.53696">
        <ele>625</ele>
        <time>2022-08-31T23:56:46Z</time>
      </trkpt>
      <trkpt lat="46.20669" lon="4.53693">
        <ele>625</ele>
        <time>2022-08-31T23:56:47Z</time>
      </trkpt>
      <trkpt lat="46.20663" lon="4.53695">
        <ele>625</ele>
        <time>2022-08-31T23:56:48Z</time>
      </trkpt>
      <trkpt lat="46.20659" lon="4.53678">
        <ele>626</ele>
        <time>2022-08-31T23:56:50Z</time>
      </trkpt>
      <trkpt lat="46.20653" lon="4.53672">
        <ele>626</ele>
        <time>2022-08-31T23:56:52Z</time>
      </trkpt>
      <trkpt lat="46.20644" lon="4.53678">
        <ele>626</ele>
        <time>2022-08-31T23:56:53Z</time>
      </trkpt>
      <trkpt lat="46.20634" lon="4.53681">
        <ele>625</ele>
        <time>2022-08-31T23:56:55Z</time>
      </trkpt>
      <trkpt lat="46.20626" lon="4.53677">
        <ele>626</ele>
        <time>2022-08-31T23:56:57Z</time>
      </trkpt>
      <trkpt lat="46.20624" lon="4.53627">
        <ele>628</ele>
        <time>2022-08-31T23:57:03Z</time>
      </trkpt>
      <trkpt lat="46.20602" lon="4.5334">
        <ele>654</ele>
        <time>2022-08-31T23:57:39Z</time>
      </trkpt>
      <trkpt lat="46.20616" lon="4.53297">
        <ele>656</ele>
        <time>2022-08-31T23:57:44Z</time>
      </trkpt>
      <trkpt lat="46.20621" lon="4.53265">
        <ele>658</ele>
        <time>2022-08-31T23:57:48Z</time>
      </trkpt>
      <trkpt lat="46.20644" lon="4.53213">
        <ele>661</ele>
        <time>2022-08-31T23:57:56Z</time>
      </trkpt>
      <trkpt lat="46.20659" lon="4.53152">
        <ele>666</ele>
        <time>2022-08-31T23:58:04Z</time>
      </trkpt>
      <trkpt lat="46.20736" lon="4.53026">
        <ele>676</ele>
        <time>2022-08-31T23:58:25Z</time>
      </trkpt>
      <trkpt lat="46.20758" lon="4.52997">
        <ele>677</ele>
        <time>2022-08-31T23:58:30Z</time>
      </trkpt>
      <trkpt lat="46.20795" lon="4.5297">
        <ele>676</ele>
        <time>2022-08-31T23:58:37Z</time>
      </trkpt>
      <trkpt lat="46.20831" lon="4.52931">
        <ele>675</ele>
        <time>2022-08-31T23:58:45Z</time>
      </trkpt>
      <trkpt lat="46.20851" lon="4.52894">
        <ele>677</ele>
        <time>2022-08-31T23:58:51Z</time>
      </trkpt>
      <trkpt lat="46.20868" lon="4.52855">
        <ele>680</ele>
        <time>2022-08-31T23:58:57Z</time>
      </trkpt>
      <trkpt lat="46.20878" lon="4.52806">
        <ele>684</ele>
        <time>2022-08-31T23:59:03Z</time>
      </trkpt>
      <trkpt lat="46.2088" lon="4.52741">
        <ele>689</ele>
        <time>2022-08-31T23:59:11Z</time>
      </trkpt>
      <trkpt lat="46.20874" lon="4.52689">
        <ele>693</ele>
        <time>2022-08-31T23:59:18Z</time>
      </trkpt>
      <trkpt lat="46.20879" lon="4.52563">
        <ele>700</ele>
        <time>2022-08-31T23:59:33Z</time>
      </trkpt>
      <trkpt lat="46.20863" lon="4.52344">
        <ele>716</ele>
        <time>2022-09-01T00:00:00Z</time>
      </trkpt>
      <trkpt lat="46.20854" lon="4.5229">
        <ele>714</ele>
        <time>2022-09-01T00:00:07Z</time>
      </trkpt>
      <trkpt lat="46.20837" lon="4.52237">
        <ele>712</ele>
        <time>2022-09-01T00:00:14Z</time>
      </trkpt>
      <trkpt lat="46.20817" lon="4.52201">
        <ele>713</ele>
        <time>2022-09-01T00:00:20Z</time>
      </trkpt>
      <trkpt lat="46.20806" lon="4.52169">
        <ele>713</ele>
        <time>2022-09-01T00:00:24Z</time>
      </trkpt>
      <trkpt lat="46.20769" lon="4.52098">
        <ele>714</ele>
        <time>2022-09-01T00:00:35Z</time>
      </trkpt>
      <trkpt lat="46.2075" lon="4.52055">
        <ele>714</ele>
        <time>2022-09-01T00:00:42Z</time>
      </trkpt>
      <trkpt lat="46.2072" lon="4.52014">
        <ele>715</ele>
        <time>2022-09-01T00:00:49Z</time>
      </trkpt>
      <trkpt lat="46.20677" lon="4.51961">
        <ele>718</ele>
        <time>2022-09-01T00:00:59Z</time>
      </trkpt>
      <trkpt lat="46.20551" lon="4.51811">
        <ele>713</ele>
        <time>2022-09-01T00:01:28Z</time>
      </trkpt>
      <trkpt lat="46.20501" lon="4.51722">
        <ele>713</ele>
        <time>2022-09-01T00:01:42Z</time>
      </trkpt>
      <trkpt lat="46.20421" lon="4.51626">
        <ele>711</ele>
        <time>2022-09-01T00:02:01Z</time>
      </trkpt>
      <trkpt lat="46.20399" lon="4.51533">
        <ele>716</ele>
        <time>2022-09-01T00:02:13Z</time>
      </trkpt>
      <trkpt lat="46.20371" lon="4.51481">
        <ele>722</ele>
        <time>2022-09-01T00:02:21Z</time>
      </trkpt>
      <trkpt lat="46.20336" lon="4.51404">
        <ele>733</ele>
        <time>2022-09-01T00:02:32Z</time>
      </trkpt>
      <trkpt lat="46.20327" lon="4.51376">
        <ele>734</ele>
        <time>2022-09-01T00:02:36Z</time>
      </trkpt>
      <trkpt lat="46.20324" lon="4.51342">
        <ele>737</ele>
        <time>2022-09-01T00:02:40Z</time>
      </trkpt>
      <trkpt lat="46.20327" lon="4.51299">
        <ele>739</ele>
        <time>2022-09-01T00:02:46Z</time>
      </trkpt>
      <trkpt lat="46.20321" lon="4.51252">
        <ele>740</ele>
        <time>2022-09-01T00:02:51Z</time>
      </trkpt>
      <trkpt lat="46.20327" lon="4.51172">
        <ele>745</ele>
        <time>2022-09-01T00:03:01Z</time>
      </trkpt>
      <trkpt lat="46.20299" lon="4.5104">
        <ele>752</ele>
        <time>2022-09-01T00:03:18Z</time>
      </trkpt>
      <trkpt lat="46.20282" lon="4.50997">
        <ele>755</ele>
        <time>2022-09-01T00:03:24Z</time>
      </trkpt>
      <trkpt lat="46.20241" lon="4.50883">
        <ele>776</ele>
        <time>2022-09-01T00:03:40Z</time>
      </trkpt>
      <trkpt lat="46.20204" lon="4.50828">
        <ele>781</ele>
        <time>2022-09-01T00:03:50Z</time>
      </trkpt>
      <trkpt lat="46.20185" lon="4.50769">
        <ele>787</ele>
        <time>2022-09-01T00:03:58Z</time>
      </trkpt>
      <trkpt lat="46.20114" lon="4.50676">
        <ele>796</ele>
        <time>2022-09-01T00:04:15Z</time>
      </trkpt>
      <trkpt lat="46.20074" lon="4.50655">
        <ele>800</ele>
        <time>2022-09-01T00:04:22Z</time>
      </trkpt>
      <trkpt lat="46.19959" lon="4.50653">
        <ele>808</ele>
        <time>2022-09-01T00:04:43Z</time>
      </trkpt>
      <trkpt lat="46.19863" lon="4.50637">
        <ele>810</ele>
        <time>2022-09-01T00:05:00Z</time>
      </trkpt>
      <trkpt lat="46.19834" lon="4.50615">
        <ele>812</ele>
        <time>2022-09-01T00:05:06Z</time>
      </trkpt>
      <trkpt lat="46.19825" lon="4.50611">
        <ele>811</ele>
        <time>2022-09-01T00:05:08Z</time>
      </trkpt>
      <trkpt lat="46.19817" lon="4.50602">
        <ele>811</ele>
        <time>2022-09-01T00:05:09Z</time>
      </trkpt>
      <trkpt lat="46.19814" lon="4.50588">
        <ele>813</ele>
        <time>2022-09-01T00:05:11Z</time>
      </trkpt>
      <trkpt lat="46.19816" lon="4.5058">
        <ele>814</ele>
        <time>2022-09-01T00:05:12Z</time>
      </trkpt>
      <trkpt lat="46.19819" lon="4.50577">
        <ele>815</ele>
        <time>2022-09-01T00:05:13Z</time>
      </trkpt>
      <trkpt lat="46.19825" lon="4.50577">
        <ele>816</ele>
        <time>2022-09-01T00:05:14Z</time>
      </trkpt>
      <trkpt lat="46.19905" lon="4.50597">
        <ele>820</ele>
        <time>2022-09-01T00:05:28Z</time>
      </trkpt>
      <trkpt lat="46.19921" lon="4.50595">
        <ele>821</ele>
        <time>2022-09-01T00:05:31Z</time>
      </trkpt>
      <trkpt lat="46.19941" lon="4.50553">
        <ele>826</ele>
        <time>2022-09-01T00:05:38Z</time>
      </trkpt>
      <trkpt lat="46.19968" lon="4.50426">
        <ele>836</ele>
        <time>2022-09-01T00:05:54Z</time>
      </trkpt>
      <trkpt lat="46.19994" lon="4.50377">
        <ele>841</ele>
        <time>2022-09-01T00:06:01Z</time>
      </trkpt>
      <trkpt lat="46.20032" lon="4.50323">
        <ele>849</ele>
        <time>2022-09-01T00:06:11Z</time>
      </trkpt>
      <trkpt lat="46.20047" lon="4.50264">
        <ele>853</ele>
        <time>2022-09-01T00:06:19Z</time>
      </trkpt>
      <trkpt lat="46.20058" lon="4.50197">
        <ele>856</ele>
        <time>2022-09-01T00:06:27Z</time>
      </trkpt>
      <trkpt lat="46.20056" lon="4.5015">
        <ele>857</ele>
        <time>2022-09-01T00:06:33Z</time>
      </trkpt>
      <trkpt lat="46.20033" lon="4.4995">
        <ele>869</ele>
        <time>2022-09-01T00:06:58Z</time>
      </trkpt>
      <trkpt lat="46.20002" lon="4.49857">
        <ele>878</ele>
        <time>2022-09-01T00:07:11Z</time>
      </trkpt>
      <trkpt lat="46.19977" lon="4.49794">
        <ele>880</ele>
        <time>2022-09-01T00:07:20Z</time>
      </trkpt>
      <trkpt lat="46.19971" lon="4.49789">
        <ele>880</ele>
        <time>2022-09-01T00:07:21Z</time>
      </trkpt>
      <trkpt lat="46.1995" lon="4.49761">
        <ele>880</ele>
        <time>2022-09-01T00:07:26Z</time>
      </trkpt>
      <trkpt lat="46.19933" lon="4.4973">
        <ele>882</ele>
        <time>2022-09-01T00:07:31Z</time>
      </trkpt>
      <trkpt lat="46.19888" lon="4.49632">
        <ele>892</ele>
        <time>2022-09-01T00:07:45Z</time>
      </trkpt>
      <trkpt lat="46.19806" lon="4.49499">
        <ele>899</ele>
        <time>2022-09-01T00:08:07Z</time>
      </trkpt>
      <trkpt lat="46.19776" lon="4.49467">
        <ele>895</ele>
        <time>2022-09-01T00:08:14Z</time>
      </trkpt>
      <trkpt lat="46.19751" lon="4.49414">
        <ele>896</ele>
        <time>2022-09-01T00:08:22Z</time>
      </trkpt>
      <trkpt lat="46.1972" lon="4.4934">
        <ele>899</ele>
        <time>2022-09-01T00:08:32Z</time>
      </trkpt>
      <trkpt lat="46.19688" lon="4.49244">
        <ele>902</ele>
        <time>2022-09-01T00:08:46Z</time>
      </trkpt>
      <trkpt lat="46.19638" lon="4.49129">
        <ele>899</ele>
        <time>2022-09-01T00:09:02Z</time>
      </trkpt>
      <trkpt lat="46.19617" lon="4.4908">
        <ele>897</ele>
        <time>2022-09-01T00:09:09Z</time>
      </trkpt>
      <trkpt lat="46.19604" lon="4.48991">
        <ele>892</ele>
        <time>2022-09-01T00:09:21Z</time>
      </trkpt>
      <trkpt lat="46.19564" lon="4.48861">
        <ele>892</ele>
        <time>2022-09-01T00:09:38Z</time>
      </trkpt>
      <trkpt lat="46.1956" lon="4.48837">
        <ele>894</ele>
        <time>2022-09-01T00:09:41Z</time>
      </trkpt>
      <trkpt lat="46.1956" lon="4.48808">
        <ele>896</ele>
        <time>2022-09-01T00:09:45Z</time>
      </trkpt>
      <trkpt lat="46.19564" lon="4.48742">
        <ele>900</ele>
        <time>2022-09-01T00:09:53Z</time>
      </trkpt>
      <trkpt lat="46.19556" lon="4.48682">
        <ele>897</ele>
        <time>2022-09-01T00:10:00Z</time>
      </trkpt>
      <trkpt lat="46.19546" lon="4.48632">
        <ele>896</ele>
        <time>2022-09-01T00:10:07Z</time>
      </trkpt>
      <trkpt lat="46.19528" lon="4.48481">
        <ele>902</ele>
        <time>2022-09-01T00:10:26Z</time>
      </trkpt>
      <trkpt lat="46.19527" lon="4.4844">
        <ele>905</ele>
        <time>2022-09-01T00:10:31Z</time>
      </trkpt>
      <trkpt lat="46.1953" lon="4.48415">
        <ele>907</ele>
        <time>2022-09-01T00:10:34Z</time>
      </trkpt>
      <trkpt lat="46.1953" lon="4.48393">
        <ele>908</ele>
        <time>2022-09-01T00:10:37Z</time>
      </trkpt>
      <trkpt lat="46.19527" lon="4.48371">
        <ele>908</ele>
        <time>2022-09-01T00:10:39Z</time>
      </trkpt>
      <trkpt lat="46.19517" lon="4.48334">
        <ele>909</ele>
        <time>2022-09-01T00:10:44Z</time>
      </trkpt>
      <trkpt lat="46.19488" lon="4.48274">
        <ele>903</ele>
        <time>2022-09-01T00:10:53Z</time>
      </trkpt>
      <trkpt lat="46.19471" lon="4.48253">
        <ele>900</ele>
        <time>2022-09-01T00:10:57Z</time>
      </trkpt>
      <trkpt lat="46.19527" lon="4.48244">
        <ele>902</ele>
        <time>2022-09-01T00:11:07Z</time>
      </trkpt>
      <trkpt lat="46.19613" lon="4.48236">
        <ele>909</ele>
        <time>2022-09-01T00:11:23Z</time>
      </trkpt>
      <trkpt lat="46.19634" lon="4.48227">
        <ele>910</ele>
        <time>2022-09-01T00:11:26Z</time>
      </trkpt>
      <trkpt lat="46.19708" lon="4.48174">
        <ele>912</ele>
        <time>2022-09-01T00:11:41Z</time>
      </trkpt>
      <trkpt lat="46.19731" lon="4.48156">
        <ele>914</ele>
        <time>2022-09-01T00:11:46Z</time>
      </trkpt>
      <trkpt lat="46.19765" lon="4.48124">
        <ele>914</ele>
        <time>2022-09-01T00:11:53Z</time>
      </trkpt>
      <trkpt lat="46.19764" lon="4.48061">
        <ele>910</ele>
        <time>2022-09-01T00:12:01Z</time>
      </trkpt>
      <trkpt lat="46.19765" lon="4.48023">
        <ele>909</ele>
        <time>2022-09-01T00:12:05Z</time>
      </trkpt>
      <trkpt lat="46.19777" lon="4.47861">
        <ele>909</ele>
        <time>2022-09-01T00:12:26Z</time>
      </trkpt>
      <trkpt lat="46.19775" lon="4.47822">
        <ele>910</ele>
        <time>2022-09-01T00:12:30Z</time>
      </trkpt>
      <trkpt lat="46.19776" lon="4.47766">
        <ele>911</ele>
        <time>2022-09-01T00:12:37Z</time>
      </trkpt>
      <trkpt lat="46.19765" lon="4.47703">
        <ele>913</ele>
        <time>2022-09-01T00:12:45Z</time>
      </trkpt>
      <trkpt lat="46.19737" lon="4.47628">
        <ele>917</ele>
        <time>2022-09-01T00:12:56Z</time>
      </trkpt>
      <trkpt lat="46.19712" lon="4.47611">
        <ele>916</ele>
        <time>2022-09-01T00:13:01Z</time>
      </trkpt>
      <trkpt lat="46.19562" lon="4.47529">
        <ele>913</ele>
        <time>2022-09-01T00:13:29Z</time>
      </trkpt>
      <trkpt lat="46.1953" lon="4.4751">
        <ele>915</ele>
        <time>2022-09-01T00:13:35Z</time>
      </trkpt>
      <trkpt lat="46.1947" lon="4.47472">
        <ele>916</ele>
        <time>2022-09-01T00:13:47Z</time>
      </trkpt>
      <trkpt lat="46.19413" lon="4.47461">
        <ele>916</ele>
        <time>2022-09-01T00:13:57Z</time>
      </trkpt>
      <trkpt lat="46.19361" lon="4.47419">
        <ele>916</ele>
        <time>2022-09-01T00:14:08Z</time>
      </trkpt>
      <trkpt lat="46.19353" lon="4.47416">
        <ele>915</ele>
        <time>2022-09-01T00:14:09Z</time>
      </trkpt>
      <trkpt lat="46.1931" lon="4.47398">
        <ele>914</ele>
        <time>2022-09-01T00:14:17Z</time>
      </trkpt>
      <trkpt lat="46.1927" lon="4.47375">
        <ele>913</ele>
        <time>2022-09-01T00:14:25Z</time>
      </trkpt>
      <trkpt lat="46.192" lon="4.47402">
        <ele>910</ele>
        <time>2022-09-01T00:14:38Z</time>
      </trkpt>
      <trkpt lat="46.19166" lon="4.47402">
        <ele>909</ele>
        <time>2022-09-01T00:14:44Z</time>
      </trkpt>
      <trkpt lat="46.19102" lon="4.47389">
        <ele>903</ele>
        <time>2022-09-01T00:14:55Z</time>
      </trkpt>
      <trkpt lat="46.19059" lon="4.47367">
        <ele>899</ele>
        <time>2022-09-01T00:15:03Z</time>
      </trkpt>
      <trkpt lat="46.19" lon="4.47327">
        <ele>892</ele>
        <time>2022-09-01T00:15:15Z</time>
      </trkpt>
      <trkpt lat="46.18915" lon="4.47252">
        <ele>883</ele>
        <time>2022-09-01T00:15:33Z</time>
      </trkpt>
      <trkpt lat="46.18865" lon="4.47188">
        <ele>878</ele>
        <time>2022-09-01T00:15:45Z</time>
      </trkpt>
      <trkpt lat="46.18813" lon="4.47081">
        <ele>873</ele>
        <time>2022-09-01T00:16:01Z</time>
      </trkpt>
      <trkpt lat="46.18783" lon="4.47034">
        <ele>870</ele>
        <time>2022-09-01T00:16:09Z</time>
      </trkpt>
      <trkpt lat="46.18747" lon="4.46997">
        <ele>868</ele>
        <time>2022-09-01T00:16:17Z</time>
      </trkpt>
      <trkpt lat="46.18714" lon="4.46968">
        <ele>864</ele>
        <time>2022-09-01T00:16:23Z</time>
      </trkpt>
      <trkpt lat="46.18676" lon="4.46915">
        <ele>862</ele>
        <time>2022-09-01T00:16:33Z</time>
      </trkpt>
      <trkpt lat="46.18509" lon="4.46811">
        <ele>856</ele>
        <time>2022-09-01T00:17:05Z</time>
      </trkpt>
      <trkpt lat="46.18502" lon="4.46778">
        <ele>856</ele>
        <time>2022-09-01T00:17:09Z</time>
      </trkpt>
      <trkpt lat="46.18494" lon="4.467">
        <ele>853</ele>
        <time>2022-09-01T00:17:19Z</time>
      </trkpt>
      <trkpt lat="46.18479" lon="4.46471">
        <ele>829</ele>
        <time>2022-09-01T00:17:47Z</time>
      </trkpt>
      <trkpt lat="46.18477" lon="4.46347">
        <ele>815</ele>
        <time>2022-09-01T00:18:03Z</time>
      </trkpt>
      <trkpt lat="46.18475" lon="4.46304">
        <ele>811</ele>
        <time>2022-09-01T00:18:08Z</time>
      </trkpt>
      <trkpt lat="46.18466" lon="4.46225">
        <ele>805</ele>
        <time>2022-09-01T00:18:18Z</time>
      </trkpt>
      <trkpt lat="46.18464" lon="4.46172">
        <ele>801</ele>
        <time>2022-09-01T00:18:24Z</time>
      </trkpt>
      <trkpt lat="46.18461" lon="4.46147">
        <ele>799</ele>
        <time>2022-09-01T00:18:28Z</time>
      </trkpt>
      <trkpt lat="46.18449" lon="4.46096">
        <ele>795</ele>
        <time>2022-09-01T00:18:34Z</time>
      </trkpt>
      <trkpt lat="46.18395" lon="4.45904">
        <ele>791</ele>
        <time>2022-09-01T00:19:00Z</time>
      </trkpt>
      <trkpt lat="46.18375" lon="4.45812">
        <ele>791</ele>
        <time>2022-09-01T00:19:12Z</time>
      </trkpt>
      <trkpt lat="46.18368" lon="4.45773">
        <ele>791</ele>
        <time>2022-09-01T00:19:17Z</time>
      </trkpt>
      <trkpt lat="46.18367" lon="4.45747">
        <ele>789</ele>
        <time>2022-09-01T00:19:20Z</time>
      </trkpt>
      <trkpt lat="46.1837" lon="4.45701">
        <ele>783</ele>
        <time>2022-09-01T00:19:25Z</time>
      </trkpt>
      <trkpt lat="46.18368" lon="4.45645">
        <ele>779</ele>
        <time>2022-09-01T00:19:32Z</time>
      </trkpt>
      <trkpt lat="46.1837" lon="4.45582">
        <ele>776</ele>
        <time>2022-09-01T00:19:40Z</time>
      </trkpt>
      <trkpt lat="46.18388" lon="4.45369">
        <ele>773</ele>
        <time>2022-09-01T00:20:07Z</time>
      </trkpt>
      <trkpt lat="46.18394" lon="4.45277">
        <ele>770</ele>
        <time>2022-09-01T00:20:18Z</time>
      </trkpt>
      <trkpt lat="46.18399" lon="4.45226">
        <ele>769</ele>
        <time>2022-09-01T00:20:24Z</time>
      </trkpt>
      <trkpt lat="46.1841" lon="4.45187">
        <ele>768</ele>
        <time>2022-09-01T00:20:29Z</time>
      </trkpt>
      <trkpt lat="46.18424" lon="4.45157">
        <ele>763</ele>
        <time>2022-09-01T00:20:34Z</time>
      </trkpt>
      <trkpt lat="46.1844" lon="4.45132">
        <ele>759</ele>
        <time>2022-09-01T00:20:38Z</time>
      </trkpt>
      <trkpt lat="46.18454" lon="4.45122">
        <ele>756</ele>
        <time>2022-09-01T00:20:41Z</time>
      </trkpt>
      <trkpt lat="46.18479" lon="4.45109">
        <ele>752</ele>
        <time>2022-09-01T00:20:46Z</time>
      </trkpt>
      <trkpt lat="46.185" lon="4.45104">
        <ele>749</ele>
        <time>2022-09-01T00:20:49Z</time>
      </trkpt>
      <trkpt lat="46.18517" lon="4.45096">
        <ele>748</ele>
        <time>2022-09-01T00:20:53Z</time>
      </trkpt>
      <trkpt lat="46.18539" lon="4.45079">
        <ele>747</ele>
        <time>2022-09-01T00:20:57Z</time>
      </trkpt>
      <trkpt lat="46.18557" lon="4.45053">
        <ele>746</ele>
        <time>2022-09-01T00:21:02Z</time>
      </trkpt>
      <trkpt lat="46.1857" lon="4.45027">
        <ele>745</ele>
        <time>2022-09-01T00:21:06Z</time>
      </trkpt>
      <trkpt lat="46.18581" lon="4.44994">
        <ele>745</ele>
        <time>2022-09-01T00:21:10Z</time>
      </trkpt>
      <trkpt lat="46.18586" lon="4.44964">
        <ele>744</ele>
        <time>2022-09-01T00:21:14Z</time>
      </trkpt>
      <trkpt lat="46.18588" lon="4.44929">
        <ele>742</ele>
        <time>2022-09-01T00:21:18Z</time>
      </trkpt>
      <trkpt lat="46.18578" lon="4.44813">
        <ele>738</ele>
        <time>2022-09-01T00:21:33Z</time>
      </trkpt>
      <trkpt lat="46.18578" lon="4.44774">
        <ele>737</ele>
        <time>2022-09-01T00:21:37Z</time>
      </trkpt>
      <trkpt lat="46.18581" lon="4.44744">
        <ele>736</ele>
        <time>2022-09-01T00:21:41Z</time>
      </trkpt>
      <trkpt lat="46.18586" lon="4.44724">
        <ele>737</ele>
        <time>2022-09-01T00:21:44Z</time>
      </trkpt>
      <trkpt lat="46.18594" lon="4.4471">
        <ele>737</ele>
        <time>2022-09-01T00:21:46Z</time>
      </trkpt>
      <trkpt lat="46.18606" lon="4.44696">
        <ele>736</ele>
        <time>2022-09-01T00:21:49Z</time>
      </trkpt>
      <trkpt lat="46.18657" lon="4.44673">
        <ele>727</ele>
        <time>2022-09-01T00:21:58Z</time>
      </trkpt>
      <trkpt lat="46.18673" lon="4.44661">
        <ele>726</ele>
        <time>2022-09-01T00:22:01Z</time>
      </trkpt>
      <trkpt lat="46.18694" lon="4.4464">
        <ele>728</ele>
        <time>2022-09-01T00:22:06Z</time>
      </trkpt>
      <trkpt lat="46.18722" lon="4.44605">
        <ele>731</ele>
        <time>2022-09-01T00:22:13Z</time>
      </trkpt>
      <trkpt lat="46.1877" lon="4.44561">
        <ele>732</ele>
        <time>2022-09-01T00:22:23Z</time>
      </trkpt>
      <trkpt lat="46.1881" lon="4.44539">
        <ele>732</ele>
        <time>2022-09-01T00:22:30Z</time>
      </trkpt>
      <trkpt lat="46.18849" lon="4.44522">
        <ele>730</ele>
        <time>2022-09-01T00:22:38Z</time>
      </trkpt>
      <trkpt lat="46.18874" lon="4.44501">
        <ele>728</ele>
        <time>2022-09-01T00:22:43Z</time>
      </trkpt>
      <trkpt lat="46.18932" lon="4.44441">
        <ele>718</ele>
        <time>2022-09-01T00:22:55Z</time>
      </trkpt>
      <trkpt lat="46.18959" lon="4.44386">
        <ele>712</ele>
        <time>2022-09-01T00:23:04Z</time>
      </trkpt>
      <trkpt lat="46.18978" lon="4.44342">
        <ele>707</ele>
        <time>2022-09-01T00:23:10Z</time>
      </trkpt>
      <trkpt lat="46.18982" lon="4.4432">
        <ele>705</ele>
        <time>2022-09-01T00:23:13Z</time>
      </trkpt>
      <trkpt lat="46.1899" lon="4.44253">
        <ele>698</ele>
        <time>2022-09-01T00:23:21Z</time>
      </trkpt>
      <trkpt lat="46.18985" lon="4.44228">
        <ele>696</ele>
        <time>2022-09-01T00:23:24Z</time>
      </trkpt>
      <trkpt lat="46.18985" lon="4.44214">
        <ele>695</ele>
        <time>2022-09-01T00:23:26Z</time>
      </trkpt>
      <trkpt lat="46.18987" lon="4.44201">
        <ele>694</ele>
        <time>2022-09-01T00:23:28Z</time>
      </trkpt>
      <trkpt lat="46.19013" lon="4.44145">
        <ele>687</ele>
        <time>2022-09-01T00:23:36Z</time>
      </trkpt>
      <trkpt lat="46.19021" lon="4.44125">
        <ele>684</ele>
        <time>2022-09-01T00:23:39Z</time>
      </trkpt>
      <trkpt lat="46.19025" lon="4.4411">
        <ele>683</ele>
        <time>2022-09-01T00:23:41Z</time>
      </trkpt>
      <trkpt lat="46.19026" lon="4.44096">
        <ele>682</ele>
        <time>2022-09-01T00:23:43Z</time>
      </trkpt>
      <trkpt lat="46.19025" lon="4.44063">
        <ele>680</ele>
        <time>2022-09-01T00:23:47Z</time>
      </trkpt>
      <trkpt lat="46.19019" lon="4.4399">
        <ele>674</ele>
        <time>2022-09-01T00:23:56Z</time>
      </trkpt>
      <trkpt lat="46.19019" lon="4.43974">
        <ele>673</ele>
        <time>2022-09-01T00:23:58Z</time>
      </trkpt>
      <trkpt lat="46.19022" lon="4.43961">
        <ele>672</ele>
        <time>2022-09-01T00:23:59Z</time>
      </trkpt>
      <trkpt lat="46.19056" lon="4.43902">
        <ele>668</ele>
        <time>2022-09-01T00:24:09Z</time>
      </trkpt>
      <trkpt lat="46.19066" lon="4.43878">
        <ele>667</ele>
        <time>2022-09-01T00:24:12Z</time>
      </trkpt>
      <trkpt lat="46.19072" lon="4.43856">
        <ele>666</ele>
        <time>2022-09-01T00:24:15Z</time>
      </trkpt>
      <trkpt lat="46.19043" lon="4.43763">
        <ele>661</ele>
        <time>2022-09-01T00:24:28Z</time>
      </trkpt>
      <trkpt lat="46.19067" lon="4.43741">
        <ele>660</ele>
        <time>2022-09-01T00:24:33Z</time>
      </trkpt>
      <trkpt lat="46.19085" lon="4.43728">
        <ele>659</ele>
        <time>2022-09-01T00:24:36Z</time>
      </trkpt>
      <trkpt lat="46.19128" lon="4.43707">
        <ele>657</ele>
        <time>2022-09-01T00:24:45Z</time>
      </trkpt>
      <trkpt lat="46.19154" lon="4.43698">
        <ele>657</ele>
        <time>2022-09-01T00:24:49Z</time>
      </trkpt>
      <trkpt lat="46.19146" lon="4.43688">
        <ele>656</ele>
        <time>2022-09-01T00:24:51Z</time>
      </trkpt>
      <trkpt lat="46.19042" lon="4.43612">
        <ele>645</ele>
        <time>2022-09-01T00:25:12Z</time>
      </trkpt>
      <trkpt lat="46.19014" lon="4.43596">
        <ele>643</ele>
        <time>2022-09-01T00:25:17Z</time>
      </trkpt>
      <trkpt lat="46.18983" lon="4.43582">
        <ele>639</ele>
        <time>2022-09-01T00:25:23Z</time>
      </trkpt>
      <trkpt lat="46.18945" lon="4.43548">
        <ele>632</ele>
        <time>2022-09-01T00:25:31Z</time>
      </trkpt>
      <trkpt lat="46.18939" lon="4.43545">
        <ele>631</ele>
        <time>2022-09-01T00:25:32Z</time>
      </trkpt>
      <trkpt lat="46.18907" lon="4.43534">
        <ele>627</ele>
        <time>2022-09-01T00:25:38Z</time>
      </trkpt>
      <trkpt lat="46.1884" lon="4.435">
        <ele>618</ele>
        <time>2022-09-01T00:25:51Z</time>
      </trkpt>
      <trkpt lat="46.18817" lon="4.43484">
        <ele>614</ele>
        <time>2022-09-01T00:25:55Z</time>
      </trkpt>
      <trkpt lat="46.18789" lon="4.43458">
        <ele>609</ele>
        <time>2022-09-01T00:26:01Z</time>
      </trkpt>
      <trkpt lat="46.18753" lon="4.4343">
        <ele>605</ele>
        <time>2022-09-01T00:26:08Z</time>
      </trkpt>
      <trkpt lat="46.18738" lon="4.43416">
        <ele>604</ele>
        <time>2022-09-01T00:26:12Z</time>
      </trkpt>
      <trkpt lat="46.18701" lon="4.43402">
        <ele>602</ele>
        <time>2022-09-01T00:26:18Z</time>
      </trkpt>
      <trkpt lat="46.18661" lon="4.43375">
        <ele>598</ele>
        <time>2022-09-01T00:26:26Z</time>
      </trkpt>
      <trkpt lat="46.18649" lon="4.43365">
        <ele>596</ele>
        <time>2022-09-01T00:26:29Z</time>
      </trkpt>
      <trkpt lat="46.18623" lon="4.43335">
        <ele>591</ele>
        <time>2022-09-01T00:26:35Z</time>
      </trkpt>
      <trkpt lat="46.18612" lon="4.4332">
        <ele>589</ele>
        <time>2022-09-01T00:26:37Z</time>
      </trkpt>
      <trkpt lat="46.18601" lon="4.43307">
        <ele>587</ele>
        <time>2022-09-01T00:26:40Z</time>
      </trkpt>
      <trkpt lat="46.18556" lon="4.43275">
        <ele>581</ele>
        <time>2022-09-01T00:26:49Z</time>
      </trkpt>
      <trkpt lat="46.18544" lon="4.43263">
        <ele>578</ele>
        <time>2022-09-01T00:26:51Z</time>
      </trkpt>
      <trkpt lat="46.18521" lon="4.43232">
        <ele>574</ele>
        <time>2022-09-01T00:26:57Z</time>
      </trkpt>
      <trkpt lat="46.18478" lon="4.4318">
        <ele>570</ele>
        <time>2022-09-01T00:27:07Z</time>
      </trkpt>
      <trkpt lat="46.18467" lon="4.4317">
        <ele>570</ele>
        <time>2022-09-01T00:27:09Z</time>
      </trkpt>
      <trkpt lat="46.18455" lon="4.43163">
        <ele>570</ele>
        <time>2022-09-01T00:27:12Z</time>
      </trkpt>
      <trkpt lat="46.18444" lon="4.43159">
        <ele>571</ele>
        <time>2022-09-01T00:27:14Z</time>
      </trkpt>
      <trkpt lat="46.18428" lon="4.43158">
        <ele>571</ele>
        <time>2022-09-01T00:27:16Z</time>
      </trkpt>
      <trkpt lat="46.18367" lon="4.43146">
        <ele>574</ele>
        <time>2022-09-01T00:27:27Z</time>
      </trkpt>
      <trkpt lat="46.1832" lon="4.43139">
        <ele>575</ele>
        <time>2022-09-01T00:27:36Z</time>
      </trkpt>
      <trkpt lat="46.18284" lon="4.43144">
        <ele>576</ele>
        <time>2022-09-01T00:27:42Z</time>
      </trkpt>
      <trkpt lat="46.18253" lon="4.43159">
        <ele>577</ele>
        <time>2022-09-01T00:27:48Z</time>
      </trkpt>
      <trkpt lat="46.18198" lon="4.43193">
        <ele>580</ele>
        <time>2022-09-01T00:27:59Z</time>
      </trkpt>
      <trkpt lat="46.18181" lon="4.43191">
        <ele>580</ele>
        <time>2022-09-01T00:28:02Z</time>
      </trkpt>
      <trkpt lat="46.18166" lon="4.43181">
        <ele>579</ele>
        <time>2022-09-01T00:28:05Z</time>
      </trkpt>
      <trkpt lat="46.18149" lon="4.43177">
        <ele>578</ele>
        <time>2022-09-01T00:28:08Z</time>
      </trkpt>
      <trkpt lat="46.18101" lon="4.43171">
        <ele>574</ele>
        <time>2022-09-01T00:28:16Z</time>
      </trkpt>
      <trkpt lat="46.18079" lon="4.43164">
        <ele>573</ele>
        <time>2022-09-01T00:28:20Z</time>
      </trkpt>
      <trkpt lat="46.18051" lon="4.43143">
        <ele>573</ele>
        <time>2022-09-01T00:28:26Z</time>
      </trkpt>
      <trkpt lat="46.1804" lon="4.43128">
        <ele>573</ele>
        <time>2022-09-01T00:28:29Z</time>
      </trkpt>
      <trkpt lat="46.18026" lon="4.43098">
        <ele>574</ele>
        <time>2022-09-01T00:28:33Z</time>
      </trkpt>
      <trkpt lat="46.18024" lon="4.43081">
        <ele>574</ele>
        <time>2022-09-01T00:28:35Z</time>
      </trkpt>
      <trkpt lat="46.18025" lon="4.43049">
        <ele>575</ele>
        <time>2022-09-01T00:28:39Z</time>
      </trkpt>
      <trkpt lat="46.18021" lon="4.43042">
        <ele>575</ele>
        <time>2022-09-01T00:28:40Z</time>
      </trkpt>
      <trkpt lat="46.18016" lon="4.43038">
        <ele>576</ele>
        <time>2022-09-01T00:28:41Z</time>
      </trkpt>
      <trkpt lat="46.1799" lon="4.43028">
        <ele>578</ele>
        <time>2022-09-01T00:28:46Z</time>
      </trkpt>
      <trkpt lat="46.17952" lon="4.42997">
        <ele>581</ele>
        <time>2022-09-01T00:28:54Z</time>
      </trkpt>
      <trkpt lat="46.17925" lon="4.42981">
        <ele>584</ele>
        <time>2022-09-01T00:28:59Z</time>
      </trkpt>
      <trkpt lat="46.17904" lon="4.42957">
        <ele>588</ele>
        <time>2022-09-01T00:29:04Z</time>
      </trkpt>
      <trkpt lat="46.17882" lon="4.42919">
        <ele>593</ele>
        <time>2022-09-01T00:29:10Z</time>
      </trkpt>
      <trkpt lat="46.17876" lon="4.42915">
        <ele>594</ele>
        <time>2022-09-01T00:29:11Z</time>
      </trkpt>
      <trkpt lat="46.17868" lon="4.42913">
        <ele>596</ele>
        <time>2022-09-01T00:29:12Z</time>
      </trkpt>
      <trkpt lat="46.17842" lon="4.42916">
        <ele>599</ele>
        <time>2022-09-01T00:29:17Z</time>
      </trkpt>
      <trkpt lat="46.17836" lon="4.42913">
        <ele>600</ele>
        <time>2022-09-01T00:29:18Z</time>
      </trkpt>
      <trkpt lat="46.17827" lon="4.42902">
        <ele>601</ele>
        <time>2022-09-01T00:29:20Z</time>
      </trkpt>
      <trkpt lat="46.17811" lon="4.4287">
        <ele>605</ele>
        <time>2022-09-01T00:29:25Z</time>
      </trkpt>
      <trkpt lat="46.1778" lon="4.42769">
        <ele>615</ele>
        <time>2022-09-01T00:29:39Z</time>
      </trkpt>
      <trkpt lat="46.17756" lon="4.42735">
        <ele>619</ele>
        <time>2022-09-01T00:29:45Z</time>
      </trkpt>
      <trkpt lat="46.17714" lon="4.42687">
        <ele>626</ele>
        <time>2022-09-01T00:29:54Z</time>
      </trkpt>
      <trkpt lat="46.17664" lon="4.4263">
        <ele>637</ele>
        <time>2022-09-01T00:30:06Z</time>
      </trkpt>
      <trkpt lat="46.17638" lon="4.42592">
        <ele>643</ele>
        <time>2022-09-01T00:30:12Z</time>
      </trkpt>
      <trkpt lat="46.17619" lon="4.42538">
        <ele>648</ele>
        <time>2022-09-01T00:30:20Z</time>
      </trkpt>
      <trkpt lat="46.17606" lon="4.42526">
        <ele>651</ele>
        <time>2022-09-01T00:30:22Z</time>
      </trkpt>
      <trkpt lat="46.17578" lon="4.42492">
        <ele>656</ele>
        <time>2022-09-01T00:30:29Z</time>
      </trkpt>
      <trkpt lat="46.1754" lon="4.42441">
        <ele>657</ele>
        <time>2022-09-01T00:30:38Z</time>
      </trkpt>
      <trkpt lat="46.17501" lon="4.42525">
        <ele>661</ele>
        <time>2022-09-01T00:30:51Z</time>
      </trkpt>
      <trkpt lat="46.17473" lon="4.42581">
        <ele>665</ele>
        <time>2022-09-01T00:30:59Z</time>
      </trkpt>
      <trkpt lat="46.17444" lon="4.42633">
        <ele>666</ele>
        <time>2022-09-01T00:31:07Z</time>
      </trkpt>
      <trkpt lat="46.17426" lon="4.42653">
        <ele>666</ele>
        <time>2022-09-01T00:31:11Z</time>
      </trkpt>
      <trkpt lat="46.17408" lon="4.42661">
        <ele>668</ele>
        <time>2022-09-01T00:31:15Z</time>
      </trkpt>
      <trkpt lat="46.17386" lon="4.42661">
        <ele>671</ele>
        <time>2022-09-01T00:31:19Z</time>
      </trkpt>
      <trkpt lat="46.17369" lon="4.42657">
        <ele>672</ele>
        <time>2022-09-01T00:31:22Z</time>
      </trkpt>
      <trkpt lat="46.17241" lon="4.42615">
        <ele>684</ele>
        <time>2022-09-01T00:31:45Z</time>
      </trkpt>
      <trkpt lat="46.17219" lon="4.42613">
        <ele>684</ele>
        <time>2022-09-01T00:31:49Z</time>
      </trkpt>
      <trkpt lat="46.17204" lon="4.42613">
        <ele>684</ele>
        <time>2022-09-01T00:31:52Z</time>
      </trkpt>
      <trkpt lat="46.17177" lon="4.42622">
        <ele>687</ele>
        <time>2022-09-01T00:31:57Z</time>
      </trkpt>
      <trkpt lat="46.17155" lon="4.42636">
        <ele>691</ele>
        <time>2022-09-01T00:32:01Z</time>
      </trkpt>
      <trkpt lat="46.17136" lon="4.42654">
        <ele>694</ele>
        <time>2022-09-01T00:32:05Z</time>
      </trkpt>
      <trkpt lat="46.17118" lon="4.42675">
        <ele>696</ele>
        <time>2022-09-01T00:32:09Z</time>
      </trkpt>
      <trkpt lat="46.17111" lon="4.4269">
        <ele>697</ele>
        <time>2022-09-01T00:32:11Z</time>
      </trkpt>
      <trkpt lat="46.17093" lon="4.42736">
        <ele>698</ele>
        <time>2022-09-01T00:32:18Z</time>
      </trkpt>
      <trkpt lat="46.17065" lon="4.42822">
        <ele>702</ele>
        <time>2022-09-01T00:32:30Z</time>
      </trkpt>
      <trkpt lat="46.17011" lon="4.42959">
        <ele>712</ele>
        <time>2022-09-01T00:32:49Z</time>
      </trkpt>
      <trkpt lat="46.16988" lon="4.43022">
        <ele>715</ele>
        <time>2022-09-01T00:32:58Z</time>
      </trkpt>
      <trkpt lat="46.16976" lon="4.43058">
        <ele>716</ele>
        <time>2022-09-01T00:33:03Z</time>
      </trkpt>
      <trkpt lat="46.16969" lon="4.43107">
        <ele>718</ele>
        <time>2022-09-01T00:33:09Z</time>
      </trkpt>
      <trkpt lat="46.16944" lon="4.43341">
        <ele>727</ele>
        <time>2022-09-01T00:33:38Z</time>
      </trkpt>
      <trkpt lat="46.16933" lon="4.43394">
        <ele>727</ele>
        <time>2022-09-01T00:33:45Z</time>
      </trkpt>
      <trkpt lat="46.16798" lon="4.43771">
        <ele>723</ele>
        <time>2022-09-01T00:34:37Z</time>
      </trkpt>
      <trkpt lat="46.1676" lon="4.43869">
        <ele>720</ele>
        <time>2022-09-01T00:34:51Z</time>
      </trkpt>
      <trkpt lat="46.16746" lon="4.43922">
        <ele>716</ele>
        <time>2022-09-01T00:34:58Z</time>
      </trkpt>
      <trkpt lat="46.16726" lon="4.44064">
        <ele>712</ele>
        <time>2022-09-01T00:35:16Z</time>
      </trkpt>
      <trkpt lat="46.16722" lon="4.44127">
        <ele>711</ele>
        <time>2022-09-01T00:35:24Z</time>
      </trkpt>
      <trkpt lat="46.16716" lon="4.44126">
        <ele>710</ele>
        <time>2022-09-01T00:35:25Z</time>
      </trkpt>
      <trkpt lat="46.1671" lon="4.44127">
        <ele>709</ele>
        <time>2022-09-01T00:35:26Z</time>
      </trkpt>
      <trkpt lat="46.16705" lon="4.44131">
        <ele>709</ele>
        <time>2022-09-01T00:35:27Z</time>
      </trkpt>
      <trkpt lat="46.16701" lon="4.44138">
        <ele>708</ele>
        <time>2022-09-01T00:35:28Z</time>
      </trkpt>
      <trkpt lat="46.16699" lon="4.44146">
        <ele>708</ele>
        <time>2022-09-01T00:35:29Z</time>
      </trkpt>
      <trkpt lat="46.16698" lon="4.44154">
        <ele>708</ele>
        <time>2022-09-01T00:35:30Z</time>
      </trkpt>
      <trkpt lat="46.167" lon="4.44162">
        <ele>708</ele>
        <time>2022-09-01T00:35:31Z</time>
      </trkpt>
      <trkpt lat="46.16706" lon="4.44172">
        <ele>709</ele>
        <time>2022-09-01T00:35:33Z</time>
      </trkpt>
      <trkpt lat="46.16709" lon="4.44191">
        <ele>710</ele>
        <time>2022-09-01T00:35:35Z</time>
      </trkpt>
      <trkpt lat="46.16709" lon="4.442">
        <ele>710</ele>
        <time>2022-09-01T00:35:36Z</time>
      </trkpt>
      <trkpt lat="46.1669" lon="4.44287">
        <ele>710</ele>
        <time>2022-09-01T00:35:47Z</time>
      </trkpt>
      <trkpt lat="46.16674" lon="4.44329">
        <ele>709</ele>
        <time>2022-09-01T00:35:53Z</time>
      </trkpt>
      <trkpt lat="46.16663" lon="4.44346">
        <ele>708</ele>
        <time>2022-09-01T00:35:56Z</time>
      </trkpt>
      <trkpt lat="46.16629" lon="4.44384">
        <ele>707</ele>
        <time>2022-09-01T00:36:04Z</time>
      </trkpt>
      <trkpt lat="46.16526" lon="4.4449">
        <ele>700</ele>
        <time>2022-09-01T00:36:26Z</time>
      </trkpt>
      <trkpt lat="46.16514" lon="4.44511">
        <ele>700</ele>
        <time>2022-09-01T00:36:30Z</time>
      </trkpt>
      <trkpt lat="46.16505" lon="4.44532">
        <ele>700</ele>
        <time>2022-09-01T00:36:33Z</time>
      </trkpt>
      <trkpt lat="46.16497" lon="4.44554">
        <ele>700</ele>
        <time>2022-09-01T00:36:36Z</time>
      </trkpt>
      <trkpt lat="46.1649" lon="4.44582">
        <ele>701</ele>
        <time>2022-09-01T00:36:39Z</time>
      </trkpt>
      <trkpt lat="46.16487" lon="4.4462">
        <ele>698</ele>
        <time>2022-09-01T00:36:44Z</time>
      </trkpt>
      <trkpt lat="46.16489" lon="4.44687">
        <ele>696</ele>
        <time>2022-09-01T00:36:52Z</time>
      </trkpt>
      <trkpt lat="46.16487" lon="4.44712">
        <ele>695</ele>
        <time>2022-09-01T00:36:56Z</time>
      </trkpt>
      <trkpt lat="46.16478" lon="4.44769">
        <ele>694</ele>
        <time>2022-09-01T00:37:03Z</time>
      </trkpt>
      <trkpt lat="46.16458" lon="4.44828">
        <ele>696</ele>
        <time>2022-09-01T00:37:11Z</time>
      </trkpt>
      <trkpt lat="46.16447" lon="4.44856">
        <ele>697</ele>
        <time>2022-09-01T00:37:15Z</time>
      </trkpt>
      <trkpt lat="46.16431" lon="4.44886">
        <ele>698</ele>
        <time>2022-09-01T00:37:19Z</time>
      </trkpt>
      <trkpt lat="46.16414" lon="4.44909">
        <ele>697</ele>
        <time>2022-09-01T00:37:24Z</time>
      </trkpt>
      <trkpt lat="46.16398" lon="4.44923">
        <ele>696</ele>
        <time>2022-09-01T00:37:27Z</time>
      </trkpt>
      <trkpt lat="46.16272" lon="4.45007">
        <ele>693</ele>
        <time>2022-09-01T00:37:52Z</time>
      </trkpt>
      <trkpt lat="46.1624" lon="4.45031">
        <ele>693</ele>
        <time>2022-09-01T00:37:58Z</time>
      </trkpt>
      <trkpt lat="46.16222" lon="4.45047">
        <ele>691</ele>
        <time>2022-09-01T00:38:02Z</time>
      </trkpt>
      <trkpt lat="46.1619" lon="4.45086">
        <ele>688</ele>
        <time>2022-09-01T00:38:09Z</time>
      </trkpt>
      <trkpt lat="46.16173" lon="4.45109">
        <ele>686</ele>
        <time>2022-09-01T00:38:13Z</time>
      </trkpt>
      <trkpt lat="46.1616" lon="4.45132">
        <ele>686</ele>
        <time>2022-09-01T00:38:17Z</time>
      </trkpt>
      <trkpt lat="46.16078" lon="4.45292">
        <ele>678</ele>
        <time>2022-09-01T00:38:42Z</time>
      </trkpt>
      <trkpt lat="46.16062" lon="4.45327">
        <ele>677</ele>
        <time>2022-09-01T00:38:47Z</time>
      </trkpt>
      <trkpt lat="46.16045" lon="4.45373">
        <ele>675</ele>
        <time>2022-09-01T00:38:53Z</time>
      </trkpt>
      <trkpt lat="46.16025" lon="4.45437">
        <ele>674</ele>
        <time>2022-09-01T00:39:02Z</time>
      </trkpt>
      <trkpt lat="46.16016" lon="4.45477">
        <ele>673</ele>
        <time>2022-09-01T00:39:07Z</time>
      </trkpt>
      <trkpt lat="46.16014" lon="4.45501">
        <ele>673</ele>
        <time>2022-09-01T00:39:10Z</time>
      </trkpt>
      <trkpt lat="46.16016" lon="4.4552">
        <ele>673</ele>
        <time>2022-09-01T00:39:12Z</time>
      </trkpt>
      <trkpt lat="46.1602" lon="4.45543">
        <ele>674</ele>
        <time>2022-09-01T00:39:15Z</time>
      </trkpt>
      <trkpt lat="46.16032" lon="4.45578">
        <ele>675</ele>
        <time>2022-09-01T00:39:20Z</time>
      </trkpt>
      <trkpt lat="46.16025" lon="4.45621">
        <ele>672</ele>
        <time>2022-09-01T00:39:26Z</time>
      </trkpt>
      <trkpt lat="46.16018" lon="4.45632">
        <ele>670</ele>
        <time>2022-09-01T00:39:27Z</time>
      </trkpt>
      <trkpt lat="46.16006" lon="4.45639">
        <ele>668</ele>
        <time>2022-09-01T00:39:30Z</time>
      </trkpt>
      <trkpt lat="46.15988" lon="4.45646">
        <ele>665</ele>
        <time>2022-09-01T00:39:33Z</time>
      </trkpt>
      <trkpt lat="46.15847" lon="4.45499">
        <ele>649</ele>
        <time>2022-09-01T00:40:04Z</time>
      </trkpt>
      <trkpt lat="46.15824" lon="4.45469">
        <ele>647</ele>
        <time>2022-09-01T00:40:09Z</time>
      </trkpt>
      <trkpt lat="46.15799" lon="4.45428">
        <ele>644</ele>
        <time>2022-09-01T00:40:16Z</time>
      </trkpt>
      <trkpt lat="46.15767" lon="4.45396">
        <ele>640</ele>
        <time>2022-09-01T00:40:23Z</time>
      </trkpt>
      <trkpt lat="46.15706" lon="4.45369">
        <ele>635</ele>
        <time>2022-09-01T00:40:34Z</time>
      </trkpt>
      <trkpt lat="46.15622" lon="4.45377">
        <ele>629</ele>
        <time>2022-09-01T00:40:49Z</time>
      </trkpt>
      <trkpt lat="46.15596" lon="4.45384">
        <ele>627</ele>
        <time>2022-09-01T00:40:54Z</time>
      </trkpt>
      <trkpt lat="46.15468" lon="4.45463">
        <ele>618</ele>
        <time>2022-09-01T00:41:19Z</time>
      </trkpt>
      <trkpt lat="46.15387" lon="4.45516">
        <ele>613</ele>
        <time>2022-09-01T00:41:35Z</time>
      </trkpt>
      <trkpt lat="46.15313" lon="4.45564">
        <ele>609</ele>
        <time>2022-09-01T00:41:49Z</time>
      </trkpt>
      <trkpt lat="46.1511" lon="4.45688">
        <ele>590</ele>
        <time>2022-09-01T00:42:28Z</time>
      </trkpt>
      <trkpt lat="46.15055" lon="4.45716">
        <ele>586</ele>
        <time>2022-09-01T00:42:39Z</time>
      </trkpt>
      <trkpt lat="46.15033" lon="4.45732">
        <ele>585</ele>
        <time>2022-09-01T00:42:43Z</time>
      </trkpt>
      <trkpt lat="46.14997" lon="4.45753">
        <ele>583</ele>
        <time>2022-09-01T00:42:50Z</time>
      </trkpt>
      <trkpt lat="46.14972" lon="4.4577">
        <ele>581</ele>
        <time>2022-09-01T00:42:55Z</time>
      </trkpt>
      <trkpt lat="46.14942" lon="4.45784">
        <ele>579</ele>
        <time>2022-09-01T00:43:01Z</time>
      </trkpt>
      <trkpt lat="46.1492" lon="4.4579">
        <ele>577</ele>
        <time>2022-09-01T00:43:05Z</time>
      </trkpt>
      <trkpt lat="46.14912" lon="4.45789">
        <ele>577</ele>
        <time>2022-09-01T00:43:06Z</time>
      </trkpt>
      <trkpt lat="46.14864" lon="4.45751">
        <ele>577</ele>
        <time>2022-09-01T00:43:16Z</time>
      </trkpt>
      <trkpt lat="46.14845" lon="4.45739">
        <ele>576</ele>
        <time>2022-09-01T00:43:19Z</time>
      </trkpt>
      <trkpt lat="46.14816" lon="4.45737">
        <ele>575</ele>
        <time>2022-09-01T00:43:25Z</time>
      </trkpt>
      <trkpt lat="46.14809" lon="4.45734">
        <ele>574</ele>
        <time>2022-09-01T00:43:26Z</time>
      </trkpt>
      <trkpt lat="46.14786" lon="4.45675">
        <ele>574</ele>
        <time>2022-09-01T00:43:34Z</time>
      </trkpt>
      <trkpt lat="46.14764" lon="4.45629">
        <ele>571</ele>
        <time>2022-09-01T00:43:41Z</time>
      </trkpt>
      <trkpt lat="46.14748" lon="4.45583">
        <ele>569</ele>
        <time>2022-09-01T00:43:47Z</time>
      </trkpt>
      <trkpt lat="46.14743" lon="4.45552">
        <ele>565</ele>
        <time>2022-09-01T00:43:51Z</time>
      </trkpt>
      <trkpt lat="46.14746" lon="4.45545">
        <ele>564</ele>
        <time>2022-09-01T00:43:52Z</time>
      </trkpt>
      <trkpt lat="46.1476" lon="4.45538">
        <ele>564</ele>
        <time>2022-09-01T00:43:55Z</time>
      </trkpt>
      <trkpt lat="46.14788" lon="4.45532">
        <ele>563</ele>
        <time>2022-09-01T00:44:00Z</time>
      </trkpt>
      <trkpt lat="46.14799" lon="4.4552">
        <ele>562</ele>
        <time>2022-09-01T00:44:03Z</time>
      </trkpt>
      <trkpt lat="46.14804" lon="4.45501">
        <ele>559</ele>
        <time>2022-09-01T00:44:05Z</time>
      </trkpt>
      <trkpt lat="46.14803" lon="4.45486">
        <ele>558</ele>
        <time>2022-09-01T00:44:07Z</time>
      </trkpt>
      <trkpt lat="46.14795" lon="4.45472">
        <ele>556</ele>
        <time>2022-09-01T00:44:09Z</time>
      </trkpt>
      <trkpt lat="46.14773" lon="4.45466">
        <ele>556</ele>
        <time>2022-09-01T00:44:13Z</time>
      </trkpt>
      <trkpt lat="46.14716" lon="4.45462">
        <ele>554</ele>
        <time>2022-09-01T00:44:23Z</time>
      </trkpt>
      <trkpt lat="46.14695" lon="4.45458">
        <ele>553</ele>
        <time>2022-09-01T00:44:27Z</time>
      </trkpt>
      <trkpt lat="46.14643" lon="4.45404">
        <ele>547</ele>
        <time>2022-09-01T00:44:38Z</time>
      </trkpt>
      <trkpt lat="46.14614" lon="4.45396">
        <ele>547</ele>
        <time>2022-09-01T00:44:44Z</time>
      </trkpt>
      <trkpt lat="46.14599" lon="4.45398">
        <ele>547</ele>
        <time>2022-09-01T00:44:46Z</time>
      </trkpt>
      <trkpt lat="46.14581" lon="4.45406">
        <ele>547</ele>
        <time>2022-09-01T00:44:50Z</time>
      </trkpt>
      <trkpt lat="46.14565" lon="4.45418">
        <ele>547</ele>
        <time>2022-09-01T00:44:53Z</time>
      </trkpt>
      <trkpt lat="46.1454" lon="4.45448">
        <ele>546</ele>
        <time>2022-09-01T00:44:59Z</time>
      </trkpt>
      <trkpt lat="46.14524" lon="4.45462">
        <ele>545</ele>
        <time>2022-09-01T00:45:02Z</time>
      </trkpt>
      <trkpt lat="46.1451" lon="4.45472">
        <ele>545</ele>
        <time>2022-09-01T00:45:05Z</time>
      </trkpt>
      <trkpt lat="46.14489" lon="4.45475">
        <ele>544</ele>
        <time>2022-09-01T00:45:09Z</time>
      </trkpt>
      <trkpt lat="46.14479" lon="4.45474">
        <ele>544</ele>
        <time>2022-09-01T00:45:10Z</time>
      </trkpt>
      <trkpt lat="46.14456" lon="4.45466">
        <ele>544</ele>
        <time>2022-09-01T00:45:15Z</time>
      </trkpt>
      <trkpt lat="46.14438" lon="4.45468">
        <ele>544</ele>
        <time>2022-09-01T00:45:18Z</time>
      </trkpt>
      <trkpt lat="46.14427" lon="4.45475">
        <ele>543</ele>
        <time>2022-09-01T00:45:20Z</time>
      </trkpt>
      <trkpt lat="46.14417" lon="4.4549">
        <ele>541</ele>
        <time>2022-09-01T00:45:22Z</time>
      </trkpt>
      <trkpt lat="46.14398" lon="4.45532">
        <ele>538</ele>
        <time>2022-09-01T00:45:29Z</time>
      </trkpt>
      <trkpt lat="46.14377" lon="4.45556">
        <ele>536</ele>
        <time>2022-09-01T00:45:33Z</time>
      </trkpt>
      <trkpt lat="46.14359" lon="4.4557">
        <ele>535</ele>
        <time>2022-09-01T00:45:37Z</time>
      </trkpt>
      <trkpt lat="46.14328" lon="4.45578">
        <ele>536</ele>
        <time>2022-09-01T00:45:43Z</time>
      </trkpt>
      <trkpt lat="46.14312" lon="4.45587">
        <ele>538</ele>
        <time>2022-09-01T00:45:46Z</time>
      </trkpt>
      <trkpt lat="46.14292" lon="4.45602">
        <ele>540</ele>
        <time>2022-09-01T00:45:50Z</time>
      </trkpt>
      <trkpt lat="46.14275" lon="4.4563">
        <ele>538</ele>
        <time>2022-09-01T00:45:54Z</time>
      </trkpt>
      <trkpt lat="46.14257" lon="4.45671">
        <ele>534</ele>
        <time>2022-09-01T00:46:00Z</time>
      </trkpt>
      <trkpt lat="46.14226" lon="4.45752">
        <ele>529</ele>
        <time>2022-09-01T00:46:12Z</time>
      </trkpt>
      <trkpt lat="46.14215" lon="4.45773">
        <ele>529</ele>
        <time>2022-09-01T00:46:15Z</time>
      </trkpt>
      <trkpt lat="46.14201" lon="4.45785">
        <ele>529</ele>
        <time>2022-09-01T00:46:18Z</time>
      </trkpt>
      <trkpt lat="46.14045" lon="4.45883">
        <ele>528</ele>
        <time>2022-09-01T00:46:48Z</time>
      </trkpt>
      <trkpt lat="46.14016" lon="4.45896">
        <ele>526</ele>
        <time>2022-09-01T00:46:54Z</time>
      </trkpt>
      <trkpt lat="46.13942" lon="4.45918">
        <ele>522</ele>
        <time>2022-09-01T00:47:07Z</time>
      </trkpt>
      <trkpt lat="46.13749" lon="4.46002">
        <ele>527</ele>
        <time>2022-09-01T00:47:43Z</time>
      </trkpt>
      <trkpt lat="46.1372" lon="4.46009">
        <ele>522</ele>
        <time>2022-09-01T00:47:48Z</time>
      </trkpt>
      <trkpt lat="46.13694" lon="4.46009">
        <ele>519</ele>
        <time>2022-09-01T00:47:53Z</time>
      </trkpt>
      <trkpt lat="46.13675" lon="4.46003">
        <ele>517</ele>
        <time>2022-09-01T00:47:56Z</time>
      </trkpt>
      <trkpt lat="46.13642" lon="4.4598">
        <ele>516</ele>
        <time>2022-09-01T00:48:03Z</time>
      </trkpt>
      <trkpt lat="46.13604" lon="4.45958">
        <ele>516</ele>
        <time>2022-09-01T00:48:10Z</time>
      </trkpt>
      <trkpt lat="46.13586" lon="4.45952">
        <ele>515</ele>
        <time>2022-09-01T00:48:13Z</time>
      </trkpt>
      <trkpt lat="46.13562" lon="4.45952">
        <ele>518</ele>
        <time>2022-09-01T00:48:18Z</time>
      </trkpt>
      <trkpt lat="46.13517" lon="4.45965">
        <ele>522</ele>
        <time>2022-09-01T00:48:26Z</time>
      </trkpt>
      <trkpt lat="46.13496" lon="4.45979">
        <ele>522</ele>
        <time>2022-09-01T00:48:30Z</time>
      </trkpt>
      <trkpt lat="46.13476" lon="4.46002">
        <ele>523</ele>
        <time>2022-09-01T00:48:34Z</time>
      </trkpt>
      <trkpt lat="46.13387" lon="4.46116">
        <ele>529</ele>
        <time>2022-09-01T00:48:56Z</time>
      </trkpt>
      <trkpt lat="46.13293" lon="4.46254">
        <ele>526</ele>
        <time>2022-09-01T00:49:19Z</time>
      </trkpt>
      <trkpt lat="46.13273" lon="4.46295">
        <ele>523</ele>
        <time>2022-09-01T00:49:26Z</time>
      </trkpt>
      <trkpt lat="46.13255" lon="4.46324">
        <ele>518</ele>
        <time>2022-09-01T00:49:30Z</time>
      </trkpt>
      <trkpt lat="46.13235" lon="4.46339">
        <ele>516</ele>
        <time>2022-09-01T00:49:34Z</time>
      </trkpt>
      <trkpt lat="46.13215" lon="4.46342">
        <ele>516</ele>
        <time>2022-09-01T00:49:38Z</time>
      </trkpt>
      <trkpt lat="46.13197" lon="4.46335">
        <ele>517</ele>
        <time>2022-09-01T00:49:41Z</time>
      </trkpt>
      <trkpt lat="46.13178" lon="4.46321">
        <ele>521</ele>
        <time>2022-09-01T00:49:45Z</time>
      </trkpt>
      <trkpt lat="46.13138" lon="4.46299">
        <ele>526</ele>
        <time>2022-09-01T00:49:53Z</time>
      </trkpt>
      <trkpt lat="46.13116" lon="4.46292">
        <ele>527</ele>
        <time>2022-09-01T00:49:57Z</time>
      </trkpt>
      <trkpt lat="46.13095" lon="4.46288">
        <ele>527</ele>
        <time>2022-09-01T00:50:00Z</time>
      </trkpt>
      <trkpt lat="46.13073" lon="4.46292">
        <ele>525</ele>
        <time>2022-09-01T00:50:04Z</time>
      </trkpt>
      <trkpt lat="46.1302" lon="4.46313">
        <ele>521</ele>
        <time>2022-09-01T00:50:14Z</time>
      </trkpt>
      <trkpt lat="46.12932" lon="4.46361">
        <ele>515</ele>
        <time>2022-09-01T00:50:31Z</time>
      </trkpt>
      <trkpt lat="46.12906" lon="4.46381">
        <ele>511</ele>
        <time>2022-09-01T00:50:36Z</time>
      </trkpt>
      <trkpt lat="46.12892" lon="4.46397">
        <ele>508</ele>
        <time>2022-09-01T00:50:39Z</time>
      </trkpt>
      <trkpt lat="46.12824" lon="4.46503">
        <ele>496</ele>
        <time>2022-09-01T00:50:57Z</time>
      </trkpt>
      <trkpt lat="46.12806" lon="4.46525">
        <ele>493</ele>
        <time>2022-09-01T00:51:01Z</time>
      </trkpt>
      <trkpt lat="46.12778" lon="4.46545">
        <ele>490</ele>
        <time>2022-09-01T00:51:07Z</time>
      </trkpt>
      <trkpt lat="46.12752" lon="4.46555">
        <ele>488</ele>
        <time>2022-09-01T00:51:12Z</time>
      </trkpt>
      <trkpt lat="46.12733" lon="4.46556">
        <ele>492</ele>
        <time>2022-09-01T00:51:15Z</time>
      </trkpt>
      <trkpt lat="46.1273" lon="4.46576">
        <ele>492</ele>
        <time>2022-09-01T00:51:18Z</time>
      </trkpt>
      <trkpt lat="46.12725" lon="4.46589">
        <ele>492</ele>
        <time>2022-09-01T00:51:19Z</time>
      </trkpt>
      <trkpt lat="46.12688" lon="4.46674">
        <ele>497</ele>
        <time>2022-09-01T00:51:32Z</time>
      </trkpt>
      <trkpt lat="46.12603" lon="4.46852">
        <ele>494</ele>
        <time>2022-09-01T00:51:58Z</time>
      </trkpt>
      <trkpt lat="46.12583" lon="4.46886">
        <ele>491</ele>
        <time>2022-09-01T00:52:04Z</time>
      </trkpt>
      <trkpt lat="46.12561" lon="4.46909">
        <ele>487</ele>
        <time>2022-09-01T00:52:09Z</time>
      </trkpt>
      <trkpt lat="46.12532" lon="4.46921">
        <ele>486</ele>
        <time>2022-09-01T00:52:14Z</time>
      </trkpt>
      <trkpt lat="46.12514" lon="4.46923">
        <ele>486</ele>
        <time>2022-09-01T00:52:17Z</time>
      </trkpt>
      <trkpt lat="46.12497" lon="4.46919">
        <ele>487</ele>
        <time>2022-09-01T00:52:20Z</time>
      </trkpt>
      <trkpt lat="46.12481" lon="4.4691">
        <ele>487</ele>
        <time>2022-09-01T00:52:24Z</time>
      </trkpt>
      <trkpt lat="46.12469" lon="4.46901">
        <ele>486</ele>
        <time>2022-09-01T00:52:26Z</time>
      </trkpt>
      <trkpt lat="46.12456" lon="4.46886">
        <ele>485</ele>
        <time>2022-09-01T00:52:29Z</time>
      </trkpt>
      <trkpt lat="46.12445" lon="4.46868">
        <ele>484</ele>
        <time>2022-09-01T00:52:32Z</time>
      </trkpt>
      <trkpt lat="46.12437" lon="4.46847">
        <ele>482</ele>
        <time>2022-09-01T00:52:35Z</time>
      </trkpt>
      <trkpt lat="46.12433" lon="4.46828">
        <ele>481</ele>
        <time>2022-09-01T00:52:37Z</time>
      </trkpt>
      <trkpt lat="46.12425" lon="4.46746">
        <ele>486</ele>
        <time>2022-09-01T00:52:47Z</time>
      </trkpt>
      <trkpt lat="46.12418" lon="4.46713">
        <ele>489</ele>
        <time>2022-09-01T00:52:52Z</time>
      </trkpt>
      <trkpt lat="46.12409" lon="4.46686">
        <ele>492</ele>
        <time>2022-09-01T00:52:55Z</time>
      </trkpt>
      <trkpt lat="46.12394" lon="4.46665">
        <ele>491</ele>
        <time>2022-09-01T00:52:59Z</time>
      </trkpt>
      <trkpt lat="46.12364" lon="4.4663">
        <ele>494</ele>
        <time>2022-09-01T00:53:06Z</time>
      </trkpt>
      <trkpt lat="46.12321" lon="4.46599">
        <ele>496</ele>
        <time>2022-09-01T00:53:15Z</time>
      </trkpt>
      <trkpt lat="46.12289" lon="4.4659">
        <ele>494</ele>
        <time>2022-09-01T00:53:20Z</time>
      </trkpt>
      <trkpt lat="46.1228" lon="4.4659">
        <ele>493</ele>
        <time>2022-09-01T00:53:22Z</time>
      </trkpt>
      <trkpt lat="46.1218" lon="4.46591">
        <ele>485</ele>
        <time>2022-09-01T00:53:40Z</time>
      </trkpt>
      <trkpt lat="46.12154" lon="4.46594">
        <ele>485</ele>
        <time>2022-09-01T00:53:44Z</time>
      </trkpt>
      <trkpt lat="46.12109" lon="4.46609">
        <ele>489</ele>
        <time>2022-09-01T00:53:53Z</time>
      </trkpt>
      <trkpt lat="46.12063" lon="4.4663">
        <ele>487</ele>
        <time>2022-09-01T00:54:01Z</time>
      </trkpt>
      <trkpt lat="46.12016" lon="4.46644">
        <ele>482</ele>
        <time>2022-09-01T00:54:10Z</time>
      </trkpt>
      <trkpt lat="46.1194" lon="4.4664">
        <ele>483</ele>
        <time>2022-09-01T00:54:23Z</time>
      </trkpt>
      <trkpt lat="46.11867" lon="4.46642">
        <ele>483</ele>
        <time>2022-09-01T00:54:36Z</time>
      </trkpt>
      <trkpt lat="46.11702" lon="4.46679">
        <ele>476</ele>
        <time>2022-09-01T00:55:06Z</time>
      </trkpt>
      <trkpt lat="46.11618" lon="4.46683">
        <ele>473</ele>
        <time>2022-09-01T00:55:21Z</time>
      </trkpt>
      <trkpt lat="46.11592" lon="4.46682">
        <ele>471</ele>
        <time>2022-09-01T00:55:26Z</time>
      </trkpt>
      <trkpt lat="46.11553" lon="4.46671">
        <ele>470</ele>
        <time>2022-09-01T00:55:33Z</time>
      </trkpt>
      <trkpt lat="46.11523" lon="4.46655">
        <ele>469</ele>
        <time>2022-09-01T00:55:38Z</time>
      </trkpt>
      <trkpt lat="46.11503" lon="4.46642">
        <ele>469</ele>
        <time>2022-09-01T00:55:42Z</time>
      </trkpt>
      <trkpt lat="46.1142" lon="4.46561">
        <ele>468</ele>
        <time>2022-09-01T00:56:00Z</time>
      </trkpt>
      <trkpt lat="46.11398" lon="4.46549">
        <ele>469</ele>
        <time>2022-09-01T00:56:04Z</time>
      </trkpt>
      <trkpt lat="46.11373" lon="4.46545">
        <ele>467</ele>
        <time>2022-09-01T00:56:09Z</time>
      </trkpt>
      <trkpt lat="46.11338" lon="4.46545">
        <ele>464</ele>
        <time>2022-09-01T00:56:15Z</time>
      </trkpt>
      <trkpt lat="46.11306" lon="4.46549">
        <ele>466</ele>
        <time>2022-09-01T00:56:21Z</time>
      </trkpt>
      <trkpt lat="46.11264" lon="4.46567">
        <ele>464</ele>
        <time>2022-09-01T00:56:28Z</time>
      </trkpt>
      <trkpt lat="46.11075" lon="4.46679">
        <ele>461</ele>
        <time>2022-09-01T00:57:05Z</time>
      </trkpt>
      <trkpt lat="46.11063" lon="4.46684">
        <ele>462</ele>
        <time>2022-09-01T00:57:07Z</time>
      </trkpt>
      <trkpt lat="46.10988" lon="4.46695">
        <ele>465</ele>
        <time>2022-09-01T00:57:20Z</time>
      </trkpt>
      <trkpt lat="46.10973" lon="4.467">
        <ele>466</ele>
        <time>2022-09-01T00:57:23Z</time>
      </trkpt>
      <trkpt lat="46.10936" lon="4.46719">
        <ele>465</ele>
        <time>2022-09-01T00:57:30Z</time>
      </trkpt>
      <trkpt lat="46.10877" lon="4.46758">
        <ele>460</ele>
        <time>2022-09-01T00:57:42Z</time>
      </trkpt>
      <trkpt lat="46.10795" lon="4.46821">
        <ele>454</ele>
        <time>2022-09-01T00:57:58Z</time>
      </trkpt>
      <trkpt lat="46.10775" lon="4.4683">
        <ele>453</ele>
        <time>2022-09-01T00:58:02Z</time>
      </trkpt>
      <trkpt lat="46.10751" lon="4.46836">
        <ele>453</ele>
        <time>2022-09-01T00:58:06Z</time>
      </trkpt>
      <trkpt lat="46.10718" lon="4.46839">
        <ele>452</ele>
        <time>2022-09-01T00:58:12Z</time>
      </trkpt>
      <trkpt lat="46.10689" lon="4.46838">
        <ele>451</ele>
        <time>2022-09-01T00:58:17Z</time>
      </trkpt>
      <trkpt lat="46.10663" lon="4.46834">
        <ele>451</ele>
        <time>2022-09-01T00:58:22Z</time>
      </trkpt>
      <trkpt lat="46.10635" lon="4.46827">
        <ele>450</ele>
        <time>2022-09-01T00:58:27Z</time>
      </trkpt>
      <trkpt lat="46.10576" lon="4.46808">
        <ele>449</ele>
        <time>2022-09-01T00:58:38Z</time>
      </trkpt>
      <trkpt lat="46.10514" lon="4.46795">
        <ele>448</ele>
        <time>2022-09-01T00:58:49Z</time>
      </trkpt>
      <trkpt lat="46.10479" lon="4.46796">
        <ele>449</ele>
        <time>2022-09-01T00:58:55Z</time>
      </trkpt>
      <trkpt lat="46.1046" lon="4.46801">
        <ele>450</ele>
        <time>2022-09-01T00:58:59Z</time>
      </trkpt>
      <trkpt lat="46.10431" lon="4.46813">
        <ele>451</ele>
        <time>2022-09-01T00:59:04Z</time>
      </trkpt>
      <trkpt lat="46.10327" lon="4.46868">
        <ele>450</ele>
        <time>2022-09-01T00:59:24Z</time>
      </trkpt>
      <trkpt lat="46.10299" lon="4.46885">
        <ele>449</ele>
        <time>2022-09-01T00:59:29Z</time>
      </trkpt>
      <trkpt lat="46.10276" lon="4.46902">
        <ele>449</ele>
        <time>2022-09-01T00:59:34Z</time>
      </trkpt>
      <trkpt lat="46.10199" lon="4.46967">
        <ele>450</ele>
        <time>2022-09-01T00:59:50Z</time>
      </trkpt>
      <trkpt lat="46.1003" lon="4.47096">
        <ele>440</ele>
        <time>2022-09-01T01:00:24Z</time>
      </trkpt>
      <trkpt lat="46.09988" lon="4.47119">
        <ele>438</ele>
        <time>2022-09-01T01:00:32Z</time>
      </trkpt>
      <trkpt lat="46.09937" lon="4.47136">
        <ele>437</ele>
        <time>2022-09-01T01:00:41Z</time>
      </trkpt>
      <trkpt lat="46.09889" lon="4.47148">
        <ele>437</ele>
        <time>2022-09-01T01:00:50Z</time>
      </trkpt>
      <trkpt lat="46.09865" lon="4.4715">
        <ele>437</ele>
        <time>2022-09-01T01:00:54Z</time>
      </trkpt>
      <trkpt lat="46.09846" lon="4.47148">
        <ele>439</ele>
        <time>2022-09-01T01:00:57Z</time>
      </trkpt>
      <trkpt lat="46.09825" lon="4.47144">
        <ele>439</ele>
        <time>2022-09-01T01:01:01Z</time>
      </trkpt>
      <trkpt lat="46.09757" lon="4.47121">
        <ele>440</ele>
        <time>2022-09-01T01:01:13Z</time>
      </trkpt>
      <trkpt lat="46.0967" lon="4.47089">
        <ele>435</ele>
        <time>2022-09-01T01:01:29Z</time>
      </trkpt>
      <trkpt lat="46.09622" lon="4.47069">
        <ele>436</ele>
        <time>2022-09-01T01:01:38Z</time>
      </trkpt>
      <trkpt lat="46.09577" lon="4.47065">
        <ele>437</ele>
        <time>2022-09-01T01:01:46Z</time>
      </trkpt>
      <trkpt lat="46.0956" lon="4.47066">
        <ele>438</ele>
        <time>2022-09-01T01:01:49Z</time>
      </trkpt>
      <trkpt lat="46.09527" lon="4.47076">
        <ele>438</ele>
        <time>2022-09-01T01:01:55Z</time>
      </trkpt>
      <trkpt lat="46.09477" lon="4.47104">
        <ele>437</ele>
        <time>2022-09-01T01:02:05Z</time>
      </trkpt>
      <trkpt lat="46.09441" lon="4.47131">
        <ele>434</ele>
        <time>2022-09-01T01:02:12Z</time>
      </trkpt>
      <trkpt lat="46.09366" lon="4.47192">
        <ele>433</ele>
        <time>2022-09-01T01:02:27Z</time>
      </trkpt>
      <trkpt lat="46.09282" lon="4.47251">
        <ele>429</ele>
        <time>2022-09-01T01:02:44Z</time>
      </trkpt>
      <trkpt lat="46.09098" lon="4.47407">
        <ele>425</ele>
        <time>2022-09-01T01:03:22Z</time>
      </trkpt>
      <trkpt lat="46.09061" lon="4.47452">
        <ele>426</ele>
        <time>2022-09-01T01:03:31Z</time>
      </trkpt>
      <trkpt lat="46.09035" lon="4.47487">
        <ele>426</ele>
        <time>2022-09-01T01:03:37Z</time>
      </trkpt>
      <trkpt lat="46.08985" lon="4.47568">
        <ele>424</ele>
        <time>2022-09-01T01:03:50Z</time>
      </trkpt>
      <trkpt lat="46.08929" lon="4.47653">
        <ele>420</ele>
        <time>2022-09-01T01:04:05Z</time>
      </trkpt>
      <trkpt lat="46.08879" lon="4.47725">
        <ele>423</ele>
        <time>2022-09-01T01:04:17Z</time>
      </trkpt>
      <trkpt lat="46.08856" lon="4.47755">
        <ele>423</ele>
        <time>2022-09-01T01:04:23Z</time>
      </trkpt>
      <trkpt lat="46.08786" lon="4.47836">
        <ele>424</ele>
        <time>2022-09-01T01:04:39Z</time>
      </trkpt>
      <trkpt lat="46.08753" lon="4.47885">
        <ele>423</ele>
        <time>2022-09-01T01:04:47Z</time>
      </trkpt>
      <trkpt lat="46.08737" lon="4.47916">
        <ele>421</ele>
        <time>2022-09-01T01:04:52Z</time>
      </trkpt>
      <trkpt lat="46.08701" lon="4.48016">
        <ele>418</ele>
        <time>2022-09-01T01:05:06Z</time>
      </trkpt>
      <trkpt lat="46.08691" lon="4.48038">
        <ele>419</ele>
        <time>2022-09-01T01:05:09Z</time>
      </trkpt>
      <trkpt lat="46.0868" lon="4.48059">
        <ele>419</ele>
        <time>2022-09-01T01:05:12Z</time>
      </trkpt>
      <trkpt lat="46.08664" lon="4.48081">
        <ele>419</ele>
        <time>2022-09-01T01:05:16Z</time>
      </trkpt>
      <trkpt lat="46.08635" lon="4.48111">
        <ele>419</ele>
        <time>2022-09-01T01:05:23Z</time>
      </trkpt>
      <trkpt lat="46.08552" lon="4.48184">
        <ele>417</ele>
        <time>2022-09-01T01:05:40Z</time>
      </trkpt>
      <trkpt lat="46.08519" lon="4.48218">
        <ele>415</ele>
        <time>2022-09-01T01:05:47Z</time>
      </trkpt>
      <trkpt lat="46.0851" lon="4.48226">
        <ele>415</ele>
        <time>2022-09-01T01:05:49Z</time>
      </trkpt>
      <trkpt lat="46.08498" lon="4.48231">
        <ele>415</ele>
        <time>2022-09-01T01:05:51Z</time>
      </trkpt>
      <trkpt lat="46.08471" lon="4.48235">
        <ele>415</ele>
        <time>2022-09-01T01:05:56Z</time>
      </trkpt>
      <trkpt lat="46.08415" lon="4.48236">
        <ele>415</ele>
        <time>2022-09-01T01:06:06Z</time>
      </trkpt>
      <trkpt lat="46.08393" lon="4.48239">
        <ele>414</ele>
        <time>2022-09-01T01:06:10Z</time>
      </trkpt>
      <trkpt lat="46.08258" lon="4.4828">
        <ele>409</ele>
        <time>2022-09-01T01:06:35Z</time>
      </trkpt>
      <trkpt lat="46.08226" lon="4.48285">
        <ele>409</ele>
        <time>2022-09-01T01:06:40Z</time>
      </trkpt>
      <trkpt lat="46.08174" lon="4.48287">
        <ele>410</ele>
        <time>2022-09-01T01:06:50Z</time>
      </trkpt>
      <trkpt lat="46.08137" lon="4.48292">
        <ele>412</ele>
        <time>2022-09-01T01:06:56Z</time>
      </trkpt>
      <trkpt lat="46.08097" lon="4.48303">
        <ele>412</ele>
        <time>2022-09-01T01:07:04Z</time>
      </trkpt>
      <trkpt lat="46.08063" lon="4.48321">
        <ele>411</ele>
        <time>2022-09-01T01:07:10Z</time>
      </trkpt>
      <trkpt lat="46.0803" lon="4.48344">
        <ele>411</ele>
        <time>2022-09-01T01:07:16Z</time>
      </trkpt>
      <trkpt lat="46.08006" lon="4.48366">
        <ele>411</ele>
        <time>2022-09-01T01:07:22Z</time>
      </trkpt>
      <trkpt lat="46.07973" lon="4.48407">
        <ele>412</ele>
        <time>2022-09-01T01:07:29Z</time>
      </trkpt>
      <trkpt lat="46.07955" lon="4.48437">
        <ele>414</ele>
        <time>2022-09-01T01:07:34Z</time>
      </trkpt>
      <trkpt lat="46.07929" lon="4.48493">
        <ele>412</ele>
        <time>2022-09-01T01:07:43Z</time>
      </trkpt>
      <trkpt lat="46.07914" lon="4.48534">
        <ele>411</ele>
        <time>2022-09-01T01:07:48Z</time>
      </trkpt>
      <trkpt lat="46.07904" lon="4.48558">
        <ele>411</ele>
        <time>2022-09-01T01:07:52Z</time>
      </trkpt>
      <trkpt lat="46.07887" lon="4.48588">
        <ele>411</ele>
        <time>2022-09-01T01:07:56Z</time>
      </trkpt>
      <trkpt lat="46.07869" lon="4.4861">
        <ele>411</ele>
        <time>2022-09-01T01:08:01Z</time>
      </trkpt>
      <trkpt lat="46.07841" lon="4.48639">
        <ele>409</ele>
        <time>2022-09-01T01:08:07Z</time>
      </trkpt>
      <trkpt lat="46.07734" lon="4.48741">
        <ele>405</ele>
        <time>2022-09-01T01:08:30Z</time>
      </trkpt>
      <trkpt lat="46.07689" lon="4.48787">
        <ele>404</ele>
        <time>2022-09-01T01:08:39Z</time>
      </trkpt>
      <trkpt lat="46.07501" lon="4.48997">
        <ele>399</ele>
        <time>2022-09-01T01:09:22Z</time>
      </trkpt>
      <trkpt lat="46.07484" lon="4.49012">
        <ele>399</ele>
        <time>2022-09-01T01:09:25Z</time>
      </trkpt>
      <trkpt lat="46.0746" lon="4.49025">
        <ele>398</ele>
        <time>2022-09-01T01:09:30Z</time>
      </trkpt>
    </trkseg>
  </trk>
</gpx>